Another Hard Day at the Office Weather Stats

 
 
 

High monthly outside Temperature, 22.8 , C
Low monthly outside Temperature, -1.0 , C
High yearly outside Temperature, 30.9 , C
Low yearly outside Temperature, -2.2 , C

Low monthly barometer, 1001.1 , mb
High monthly barometer, 1028.0 , mb
Low yearly barometer, 975.0 , mb
High yearly barometer 1041.1 , mb

High wind speed, 25.0 , mph
Time of High wind speed, 21:37 , mph
High monthly wind speed, 47.0 , mph
High yearly wind speed, 55.0 , mph

 

 




3126
                    Temp     Hi    Low   Out    Dew  Wind  Wind   Wind    Hi    Hi   Wind   Heat    THW                Rain    Heat    Cool    In     In    In     In     In   In Air  Wind  Wind    ISS   Arc.
  Date    Time     Out   Temp   Temp   Hum    Pt. Speed   Dir    Run Speed   Dir  Chill  Index  Index   Bar    Rain  Rate    D-D     D-D    Temp   Hum    Dew   Heat    EMC Density  Samp   Tx   Recept  Int.
---------------------------------------------------------------------------------------------------------------------------------------------------------------------------------------------------------------
22/03/19   0:05    9.3    9.3    9.3    87    7.2   4.0     W   0.33   5.0     W    8.6    9.4    8.7  1030.0  0.00  0.00   0.031   0.000   24.9    43   11.4   24.6   8.05  .0742    116    1    100.0    5 
22/03/19   0:10    9.3    9.3    9.3    87    7.2   3.0     W   0.25   5.0     W    9.0    9.4    9.1  1029.9  0.00  0.00   0.031   0.000   24.9    42   11.1   24.6   7.91  .0742    115    1    100.0    5 
22/03/19   0:15    9.2    9.3    9.2    87    7.2   2.0     W   0.17   4.0     W    9.2    9.3    9.3  1029.9  0.00  0.00   0.032   0.000   24.9    42   11.1   24.5   7.91  .0742    117    1    100.0    5 
22/03/19   0:20    9.2    9.2    9.2    87    7.2   1.0     W   0.08   4.0     W    9.2    9.3    9.3  1030.0  0.00  0.00   0.032   0.000   24.9    42   11.1   24.5   7.91  .0742    117    1    100.0    5 
22/03/19   0:25    9.2    9.2    9.2    87    7.2   2.0     W   0.17   4.0     W    9.2    9.3    9.3  1030.0  0.00  0.00   0.032   0.000   24.9    42   11.1   24.5   7.91  .0742    117    1    100.0    5 
22/03/19   0:30    9.2    9.2    9.2    87    7.2   4.0     W   0.33   6.0     W    8.5    9.3    8.6  1029.9  0.00  0.00   0.032   0.000   24.9    42   11.1   24.5   7.91  .0742    115    1    100.0    5 
22/03/19   0:35    9.2    9.2    9.1    87    7.1   5.0     W   0.42   7.0     W    8.1    9.2    8.1  1029.9  0.00  0.00   0.032   0.000   24.9    42   11.1   24.5   7.91  .0742    117    1    100.0    5 
22/03/19   0:40    9.1    9.1    9.1    87    7.1   6.0     W   0.50   8.0     W    7.7    9.2    7.7  1029.8  0.00  0.00   0.032   0.000   24.8    42   11.0   24.4   7.92  .0742    116    1    100.0    5 
22/03/19   0:45    9.1    9.1    9.1    87    7.0   6.0     W   0.50   8.0     W    7.6    9.1    7.7  1029.8  0.00  0.00   0.032   0.000   24.8    42   11.0   24.4   7.92  .0743    117    1    100.0    5 
22/03/19   0:50    9.1    9.1    9.1    87    7.0   6.0     W   0.50   7.0     W    7.6    9.1    7.7  1029.7  0.00  0.00   0.032   0.000   24.8    43   11.3   24.4   8.05  .0742    117    1    100.0    5 
22/03/19   0:55    9.1    9.1    9.1    87    7.0   6.0     W   0.50   7.0     W    7.6    9.1    7.7  1029.8  0.00  0.00   0.032   0.000   24.8    43   11.3   24.4   8.05  .0742    115    1    100.0    5 
22/03/19   1:00    9.0    9.1    9.0    87    7.0   6.0     W   0.50   7.0     W    7.5    9.1    7.6  1029.8  0.00  0.00   0.032   0.000   24.8    43   11.4   24.5   8.05  .0742    118    1    100.0    5 
22/03/19   1:05    8.9    9.1    8.9    87    6.9   6.0     W   0.50   9.0     W    7.4    9.0    7.5  1029.7  0.00  0.00   0.033   0.000   24.8    43   11.4   24.5   8.05  .0742    115    1    100.0    5 
22/03/19   1:10    8.9    8.9    8.9    87    6.8   6.0     W   0.50   9.0     W    7.4    8.9    7.4  1029.8  0.00  0.00   0.033   0.000   24.9    43   11.4   24.6   8.05  .0742    117    1    100.0    5 
22/03/19   1:15    8.8    8.9    8.8    87    6.7   6.0     W   0.50   8.0     W    7.3    8.8    7.3  1029.7  0.00  0.00   0.033   0.000   24.9    43   11.4   24.6   8.05  .0742    117    1    100.0    5 
22/03/19   1:20    8.7    8.8    8.7    87    6.6   7.0     W   0.58   8.0     W    6.8    8.7    6.9  1029.7  0.00  0.00   0.034   0.000   24.9    43   11.4   24.6   8.05  .0742    116    1    100.0    5 
22/03/19   1:25    8.6    8.7    8.6    87    6.5   6.0     W   0.50   9.0     W    7.0    8.6    7.1  1029.7  0.00  0.00   0.034   0.000   24.9    43   11.4   24.6   8.05  .0742    116    1    100.0    5 
22/03/19   1:30    8.6    8.6    8.6    87    6.5   6.0     W   0.50   8.0     W    7.0    8.6    7.1  1029.7  0.00  0.00   0.034   0.000   24.9    42   11.1   24.5   7.91  .0742    117    1    100.0    5 
22/03/19   1:35    8.6    8.6    8.6    87    6.5   7.0     W   0.58  12.0    SE    6.7    8.6    6.8  1029.7  0.00  0.00   0.034   0.000   24.9    42   11.1   24.5   7.91  .0742    117    1    100.0    5 
22/03/19   1:40    8.4    8.6    8.4    87    6.3   7.0   SSE   0.58  12.0    SE    6.5    8.4    6.6  1029.8  0.00  0.00   0.035   0.000   24.9    42   11.1   24.5   7.91  .0742    116    1    100.0    5 
22/03/19   1:45    8.4    8.4    8.4    87    6.3   7.0   SSE   0.58   9.0   SSE    6.5    8.4    6.6  1029.8  0.00  0.00   0.035   0.000   24.9    42   11.1   24.5   7.91  .0742    117    1    100.0    5 
22/03/19   1:50    8.3    8.4    8.3    87    6.2   8.0   SSE   0.67  11.0   SSE    6.0    8.3    6.1  1029.8  0.00  0.00   0.035   0.000   24.9    42   11.1   24.5   7.91  .0742    116    1    100.0    5 
22/03/19   1:55    8.3    8.3    8.3    87    6.2   8.0   SSE   0.67  10.0   SSE    6.0    8.3    6.1  1029.7  0.00  0.00   0.035   0.000   24.8    42   11.0   24.4   7.92  .0742    117    1    100.0    5 
22/03/19   2:00    8.3    8.3    8.3    87    6.3   8.0   SSE   0.67  12.0   SSE    6.1    8.4    6.1  1029.9  0.00  0.00   0.035   0.000   24.8    42   11.0   24.4   7.92  .0743    114    1    100.0    5 
22/03/19   2:05    8.3    8.3    8.3    87    6.3   8.0     S   0.67  12.0     S    6.1    8.4    6.1  1029.8  0.00  0.00   0.035   0.000   24.8    42   11.0   24.4   7.92  .0743    118    1    100.0    5 
22/03/19   2:10    8.3    8.3    8.3    87    6.3   7.0     S   0.58  10.0     S    6.4    8.4    6.5  1029.9  0.00  0.00   0.035   0.000   24.8    42   11.0   24.4   7.92  .0743    117    1    100.0    5 
22/03/19   2:15    8.4    8.4    8.3    87    6.3   6.0     S   0.50   7.0     S    6.8    8.4    6.8  1030.0  0.00  0.00   0.035   0.000   24.7    42   10.9   24.3   7.92  .0743    117    1    100.0    5 
22/03/19   2:20    8.5    8.5    8.4    87    6.5   7.0   SSE   0.58   9.0   SSE    6.7    8.6    6.7  1029.8  0.00  0.00   0.034   0.000   24.7    42   10.9   24.3   7.92  .0743    117    1    100.0    5 
22/03/19   2:25    8.6    8.6    8.5    87    6.5   6.0   SSE   0.50   8.0   SSE    7.0    8.6    7.1  1029.7  0.00  0.00   0.034   0.000   24.8    42   11.0   24.4   7.92  .0742    117    1    100.0    5 
22/03/19   2:30    8.6    8.6    8.6    87    6.6   5.0   SSE   0.42   7.0   SSE    7.4    8.7    7.4  1029.7  0.00  0.00   0.034   0.000   24.8    42   11.0   24.4   7.92  .0742    116    1    100.0    5 
22/03/19   2:35    8.7    8.7    8.6    87    6.6   7.0     S   0.58  10.0     S    6.8    8.7    6.9  1029.7  0.00  0.00   0.034   0.000   24.8    42   11.0   24.4   7.92  .0742    115    1    100.0    5 
22/03/19   2:40    8.8    8.8    8.7    87    6.7   6.0     S   0.50   8.0     S    7.3    8.8    7.3  1029.6  0.00  0.00   0.033   0.000   24.8    42   11.0   24.4   7.92  .0742    117    1    100.0    5 
22/03/19   2:45    8.8    8.8    8.7    87    6.7   6.0     S   0.50   9.0     S    7.3    8.8    7.3  1029.6  0.00  0.00   0.033   0.000   24.8    42   11.0   24.4   7.92  .0742    117    1    100.0    5 
22/03/19   2:50    8.8    8.8    8.8    87    6.8   8.0     S   0.67  10.0     S    6.7    8.9    6.7  1029.6  0.00  0.00   0.033   0.000   24.7    42   10.9   24.3   7.92  .0743    117    1    100.0    5 
22/03/19   2:55    8.8    8.8    8.8    87    6.8   8.0   SSE   0.67  10.0   SSE    6.7    8.9    6.7  1029.5  0.00  0.00   0.033   0.000   24.6    42   10.8   24.2   7.92  .0743    117    1    100.0    5 
22/03/19   3:00    8.9    8.9    8.8    87    6.8   9.0     S   0.75  11.0     S    6.4    8.9    6.4  1029.5  0.00  0.00   0.033   0.000   24.6    42   10.8   24.2   7.92  .0743    117    1    100.0    5 
22/03/19   3:05    8.9    8.9    8.9    86    6.7   8.0     S   0.67  10.0     S    6.7    8.9    6.7  1029.4  0.00  0.00   0.033   0.000   24.7    42   10.9   24.3   7.92  .0743    117    1    100.0    5 
22/03/19   3:10    8.9    8.9    8.9    86    6.7   8.0     S   0.67  10.0     S    6.7    8.9    6.7  1029.4  0.00  0.00   0.033   0.000   24.6    42   10.8   24.2   7.92  .0743    118    1    100.0    5 
22/03/19   3:15    8.8    8.9    8.8    86    6.6  10.0     S   0.83  12.0     S    6.1    8.8    6.1  1029.3  0.00  0.00   0.033   0.000   24.7    42   10.9   24.3   7.92  .0742    116    1    100.0    5 
22/03/19   3:20    8.8    8.8    8.8    86    6.6   9.0     S   0.75  13.0     S    6.3    8.8    6.3  1029.2  0.00  0.00   0.033   0.000   24.6    41   10.5   24.2   7.75  .0743    115    1    100.0    5 
22/03/19   3:25    8.8    8.8    8.7    87    6.7   7.0     S   0.58  10.0     S    7.0    8.8    7.1  1029.2  0.00  0.00   0.033   0.000   24.5    41   10.4   24.1   7.75  .0743    117    1    100.0    5 
22/03/19   3:30    8.8    8.8    8.7    86    6.6   7.0     S   0.58   8.0   SSW    7.0    8.8    7.0  1029.1  0.00  0.00   0.033   0.000   24.4    42   10.6   24.0   7.93  .0743    115    1    100.0    5 
22/03/19   3:35    8.8    8.8    8.8    86    6.6   7.0     S   0.58   9.0     S    7.1    8.8    7.1  1029.1  0.00  0.00   0.033   0.000   24.4    42   10.6   24.0   7.93  .0743    117    1    100.0    5 
22/03/19   3:40    8.8    8.9    8.8    86    6.6   8.0   SSW   0.67  11.0   SSW    6.7    8.8    6.7  1029.0  0.00  0.00   0.033   0.000   24.3    41   10.2   23.9   7.75  .0744    117    1    100.0    5 
22/03/19   3:45    8.7    8.8    8.7    87    6.7   7.0   SSW   0.58   9.0   SSW    6.9    8.8    6.9  1029.1  0.00  0.00   0.033   0.000   24.2    41   10.1   23.8   7.75  .0744    117    1    100.0    5 
22/03/19   3:50    8.7    8.7    8.7    87    6.7   6.0   SSW   0.50   8.0   SSW    7.2    8.8    7.2  1029.0  0.00  0.00   0.033   0.000   24.0    42   10.3   23.7   7.95  .0744    116    1    100.0    5 
22/03/19   3:55    8.7    8.7    8.7    87    6.7   6.0   SSW   0.50   8.0   SSW    7.2    8.8    7.2  1029.0  0.00  0.00   0.033   0.000   23.9    42   10.2   23.6   7.95  .0745    117    1    100.0    5 
22/03/19   4:00    8.7    8.7    8.7    87    6.6   6.0   SSW   0.50   7.0   SSW    7.1    8.7    7.2  1029.0  0.00  0.00   0.034   0.000   23.9    42   10.2   23.6   7.95  .0745    115    1    100.0    5 
22/03/19   4:05    8.7    8.7    8.7    87    6.7   6.0   SSW   0.50   7.0   SSW    7.2    8.8    7.2  1029.0  0.00  0.00   0.033   0.000   23.8    42   10.1   23.5   7.95  .0745    117    1    100.0    5 
22/03/19   4:10    8.8    8.8    8.7    86    6.6   6.0   SSW   0.50   7.0   SSW    7.3    8.8    7.3  1029.0  0.00  0.00   0.033   0.000   23.7    42   10.0   23.3   7.96  .0745    117    1    100.0    5 
22/03/19   4:15    8.8    8.8    8.7    86    6.6   5.0   SSW   0.42   7.0   SSW    7.6    8.8    7.6  1029.0  0.00  0.00   0.033   0.000   23.7    43   10.4   23.4   8.06  .0745    118    1    100.0    5 
22/03/19   4:20    8.8    8.8    8.7    87    6.7   5.0   SSW   0.42   7.0   SSW    7.6    8.8    7.7  1028.9  0.00  0.00   0.033   0.000   23.7    43   10.4   23.4   8.06  .0745    117    1    100.0    5 
22/03/19   4:25    8.8    8.8    8.7    86    6.6   6.0   SSW   0.50   7.0   SSW    7.3    8.8    7.3  1028.9  0.00  0.00   0.033   0.000   23.8    43   10.4   23.5   8.06  .0745    117    1    100.0    5 
22/03/19   4:30    8.8    8.8    8.8    86    6.6   5.0   SSW   0.42   7.0   SSW    7.6    8.8    7.6  1028.9  0.00  0.00   0.033   0.000   23.8    43   10.5   23.6   8.05  .0745    117    1    100.0    5 
22/03/19   4:35    8.7    8.8    8.7    86    6.5   5.0   SSW   0.42   7.0   SSW    7.5    8.7    7.5  1028.9  0.00  0.00   0.033   0.000   23.8    42   10.1   23.5   7.95  .0745    116    1    100.0    5 
22/03/19   4:40    8.7    8.7    8.7    86    6.5   4.0   SSW   0.33   7.0   SSW    7.9    8.7    7.9  1028.9  0.00  0.00   0.033   0.000   23.8    42   10.1   23.4   7.95  .0745    117    1    100.0    5 
22/03/19   4:45    8.8    8.8    8.7    86    6.6   4.0   SSW   0.33   7.0   SSW    8.0    8.8    8.0  1028.8  0.00  0.00   0.033   0.000   23.8    43   10.4   23.5   8.06  .0745    115    1    100.0    5 
22/03/19   4:50    8.8    8.8    8.7    86    6.6   3.0   SSW   0.25   6.0   SSW    8.4    8.8    8.4  1028.8  0.00  0.00   0.033   0.000   23.8    43   10.4   23.5   8.06  .0745    116    1    100.0    5 
22/03/19   4:55    8.8    8.8    8.8    86    6.6   4.0   SSW   0.33   6.0   SSW    8.0    8.8    8.0  1028.9  0.00  0.00   0.033   0.000   23.8    43   10.5   23.6   8.05  .0745    117    1    100.0    5 
22/03/19   5:00    8.8    8.8    8.8    86    6.6   5.0   SSW   0.42   7.0   SSW    7.6    8.8    7.6  1028.8  0.00  0.00   0.033   0.000   23.8    42   10.1   23.5   7.95  .0745    117    1    100.0    5 
22/03/19   5:05    8.8    8.8    8.8    86    6.6   5.0   SSW   0.42   8.0   SSW    7.6    8.8    7.6  1028.8  0.00  0.00   0.033   0.000   23.8    42   10.1   23.5   7.95  .0745    115    1    100.0    5 
22/03/19   5:10    8.7    8.8    8.7    86    6.5   7.0   SSW   0.58  10.0   SSW    6.9    8.7    6.9  1028.8  0.00  0.00   0.033   0.000   23.8    42   10.1   23.5   7.95  .0745    116    1    100.0    5 
22/03/19   5:15    8.8    8.8    8.7    86    6.6   6.0   SSW   0.50   8.0   SSW    7.3    8.8    7.3  1028.8  0.00  0.00   0.033   0.000   23.7    42   10.0   23.3   7.96  .0745    115    1    100.0    5 
22/03/19   5:20    8.8    8.8    8.8    86    6.6   4.0   SSW   0.33   7.0   SSW    8.0    8.8    8.0  1028.8  0.00  0.00   0.033   0.000   23.7    43   10.4   23.4   8.06  .0745    117    1    100.0    5 
22/03/19   5:25    8.7    8.8    8.7    86    6.5   4.0   SSW   0.33   7.0   SSW    7.9    8.7    7.9  1028.8  0.00  0.00   0.033   0.000   23.7    43   10.4   23.4   8.06  .0745    117    1    100.0    5 
22/03/19   5:30    8.8    8.8    8.7    86    6.6   5.0   SSW   0.42   7.0   SSW    7.6    8.8    7.6  1028.8  0.00  0.00   0.033   0.000   23.8    43   10.4   23.5   8.06  .0745    116    1    100.0    5 
22/03/19   5:35    8.8    8.8    8.7    86    6.6   5.0   SSW   0.42   7.0   SSW    7.6    8.8    7.6  1028.7  0.00  0.00   0.033   0.000   23.8    43   10.4   23.5   8.06  .0745    116    1    100.0    5 
22/03/19   5:40    8.7    8.8    8.7    86    6.5   7.0   SSW   0.58  11.0   SSW    6.9    8.7    6.9  1028.6  0.00  0.00   0.033   0.000   23.8    42   10.1   23.4   7.95  .0745    115    1    100.0    5 
22/03/19   5:45    8.7    8.7    8.7    86    6.5   7.0   SSW   0.58  10.0   SSW    6.8    8.7    6.8  1028.6  0.00  0.00   0.034   0.000   23.7    42   10.0   23.3   7.96  .0745    117    1    100.0    5 
22/03/19   5:50    8.7    8.7    8.7    86    6.5   6.0   SSW   0.50   7.0   SSW    7.2    8.7    7.2  1028.6  0.00  0.00   0.033   0.000   23.7    43   10.3   23.3   8.07  .0745    116    1    100.0    5 
22/03/19   5:55    8.7    8.8    8.7    86    6.5   6.0     S   0.50   8.0     S    7.2    8.7    7.2  1028.6  0.00  0.00   0.033   0.000   23.6    42    9.9   23.2   7.96  .0745    117    1    100.0    5 
22/03/19   6:00    8.7    8.7    8.7    86    6.5   6.0     S   0.50   7.0     S    7.2    8.7    7.2  1028.6  0.00  0.00   0.033   0.000   23.6    43   10.3   23.3   8.07  .0745    117    1    100.0    5 
22/03/19   6:05    8.8    8.8    8.7    86    6.6   6.0     S   0.50   7.0     S    7.3    8.8    7.3  1028.6  0.00  0.00   0.033   0.000   23.6    43   10.3   23.3   8.07  .0745    117    1    100.0    5 
22/03/19   6:10    8.8    8.8    8.8    86    6.6   6.0     S   0.50   7.0     S    7.3    8.8    7.3  1028.6  0.00  0.00   0.033   0.000   23.7    43   10.4   23.4   8.06  .0745    116    1    100.0    5 
22/03/19   6:15    8.8    8.8    8.8    86    6.6   7.0     S   0.58   7.0     S    7.0    8.8    7.0  1028.6  0.00  0.00   0.033   0.000   23.8    43   10.4   23.5   8.06  .0744    117    1    100.0    5 
22/03/19   6:20    8.8    8.8    8.8    86    6.6   7.0     S   0.58   8.0     S    7.0    8.8    7.0  1028.6  0.00  0.00   0.033   0.000   23.8    43   10.5   23.6   8.05  .0744    118    1    100.0    5 
22/03/19   6:25    8.8    8.8    8.8    86    6.6   7.0     S   0.58   8.0     S    7.0    8.8    7.0  1028.5  0.00  0.00   0.033   0.000   23.8    42   10.1   23.5   7.95  .0744    116    1    100.0    5 
22/03/19   6:30    8.8    8.8    8.8    86    6.6   6.0     S   0.50   7.0     S    7.3    8.8    7.3  1028.6  0.00  0.00   0.033   0.000   23.9    43   10.5   23.6   8.05  .0744    116    1    100.0    5 
22/03/19   6:35    8.8    8.8    8.8    86    6.6   6.0     S   0.50   7.0     S    7.3    8.8    7.3  1028.6  0.00  0.00   0.033   0.000   23.9    43   10.6   23.7   8.05  .0744    114    1    100.0    5 
22/03/19   6:40    8.8    8.8    8.8    86    6.6   6.0     S   0.50   7.0     S    7.3    8.8    7.3  1028.7  0.00  0.00   0.033   0.000   24.1    44   11.0   23.8   8.24  .0744    117    1    100.0    5 
22/03/19   6:45    8.7    8.8    8.7    86    6.5   6.0   SSW   0.50   9.0   SSW    7.2    8.7    7.2  1028.7  0.00  0.00   0.033   0.000   23.9    43   10.6   23.7   8.05  .0744    117    1    100.0    5 
22/03/19   6:50    8.7    8.8    8.7    86    6.5   5.0   SSW   0.42   8.0   SSW    7.5    8.7    7.5  1028.8  0.00  0.00   0.033   0.000   23.8    44   10.8   23.6   8.25  .0744    116    1    100.0    5 
22/03/19   6:55    8.8    8.8    8.8    86    6.6   5.0   SSW   0.42   7.0   SSW    7.6    8.8    7.6  1028.8  0.00  0.00   0.033   0.000   23.8    43   10.5   23.6   8.05  .0744    117    1    100.0    5 
22/03/19   7:00    8.8    8.8    8.8    86    6.6   4.0   SSW   0.33   6.0   SSW    8.1    8.8    8.1  1028.8  0.00  0.00   0.033   0.000   23.8    43   10.4   23.5   8.06  .0745    117    1    100.0    5 
22/03/19   7:05    8.9    8.9    8.8    86    6.7   4.0   SSW   0.33   6.0   SSW    8.1    8.9    8.1  1028.9  0.00  0.00   0.033   0.000   23.8    43   10.4   23.5   8.06  .0745    117    1    100.0    5 
22/03/19   7:10    8.9    8.9    8.8    86    6.7   5.0   SSW   0.42   8.0   SSW    7.7    8.9    7.7  1028.9  0.00  0.00   0.033   0.000   23.7    43   10.4   23.4   8.06  .0745    116    1    100.0    5 
22/03/19   7:15    8.8    8.9    8.8    86    6.6   4.0   SSW   0.33   7.0   SSW    8.1    8.8    8.1  1028.9  0.00  0.00   0.033   0.000   23.6    43   10.2   23.2   8.07  .0745    115    1    100.0    5 
22/03/19   7:20    8.8    8.9    8.8    86    6.6   5.0   SSW   0.42   7.0   SSW    7.7    8.8    7.7  1028.9  0.00  0.00   0.033   0.000   23.4    43   10.1   23.1   8.08  .0746    116    1    100.0    5 
22/03/19   7:25    8.9    8.9    8.8    86    6.7   4.0   SSW   0.33   7.0   SSW    8.1    8.9    8.1  1028.9  0.00  0.00   0.033   0.000   23.4    43   10.1   23.1   8.08  .0746    118    1    100.0    5 
22/03/19   7:30    8.9    8.9    8.8    86    6.7   3.0   SSW   0.25   5.0   SSW    8.6    8.9    8.6  1028.8  0.00  0.00   0.033   0.000   23.4    43   10.1   23.1   8.08  .0746    117    1    100.0    5 
22/03/19   7:35    8.9    8.9    8.9    86    6.7   4.0   SSW   0.33   7.0   SSW    8.1    8.9    8.1  1028.8  0.00  0.00   0.033   0.000   23.5    43   10.2   23.1   8.08  .0745    117    1    100.0    5 
22/03/19   7:40    8.9    8.9    8.9    86    6.7   4.0   SSW   0.33   6.0   SSW    8.1    8.9    8.1  1028.8  0.00  0.00   0.033   0.000   23.6    43   10.2   23.2   8.07  .0745    117    1    100.0    5 
22/03/19   7:45    8.9    8.9    8.9    86    6.7   5.0   SSW   0.42   7.0   SSW    7.8    8.9    7.8  1028.8  0.00  0.00   0.033   0.000   23.6    43   10.2   23.2   8.07  .0745    117    1    100.0    5 
22/03/19   7:50    8.9    8.9    8.9    86    6.7   5.0   SSW   0.42   7.0   SSW    7.7    8.9    7.7  1028.8  0.00  0.00   0.033   0.000   23.6    43   10.2   23.2   8.07  .0745    116    1    100.0    5 
22/03/19   7:55    8.8    8.9    8.8    86    6.6   6.0   SSW   0.50   8.0   SSW    7.3    8.8    7.3  1028.9  0.00  0.00   0.033   0.000   23.5    43   10.2   23.1   8.08  .0746    117    1    100.0    5 
22/03/19   8:00    8.8    8.9    8.8    86    6.6   5.0   SSW   0.42   8.0   SSW    7.7    8.8    7.7  1028.9  0.00  0.00   0.033   0.000   23.4    43   10.1   23.0   8.09  .0746    117    1    100.0    5 
22/03/19   8:05    8.8    8.9    8.8    86    6.6   6.0   SSW   0.50   9.0   SSW    7.3    8.8    7.3  1028.9  0.00  0.00   0.033   0.000   23.4    43   10.1   23.0   8.09  .0746    117    1    100.0    5 
22/03/19   8:10    8.9    8.9    8.9    86    6.7   5.0   SSW   0.42   6.0   SSW    7.8    8.9    7.8  1028.9  0.00  0.00   0.033   0.000   23.3    43   10.0   22.8   8.09  .0746    116    1    100.0    5 
22/03/19   8:15    8.9    8.9    8.9    86    6.7   5.0   SSW   0.42   7.0   SSW    7.8    8.9    7.8  1028.8  0.00  0.00   0.033   0.000   23.2    43    9.9   22.8   8.10  .0746    117    1    100.0    5 
22/03/19   8:20    8.9    9.0    8.9    86    6.7   5.0   SSW   0.42   7.0   SSW    7.8    8.9    7.8  1028.9  0.00  0.00   0.033   0.000   23.2    43    9.9   22.7   8.10  .0747    117    1    100.0    5 
22/03/19   8:25    8.9    8.9    8.9    86    6.7   5.0   SSW   0.42   7.0   SSW    7.8    8.9    7.8  1028.8  0.00  0.00   0.033   0.000   23.2    43    9.9   22.7   8.10  .0747    117    1    100.0    5 
22/03/19   8:30    8.9    9.0    8.9    86    6.7   6.0   SSW   0.50   8.0   SSW    7.4    8.9    7.4  1028.8  0.00  0.00   0.033   0.000   23.1    44   10.2   22.7   8.28  .0747    118    1    100.0    5 
22/03/19   8:35    8.9    8.9    8.9    86    6.7   5.0   SSW   0.42   7.0   SSW    7.8    8.9    7.8  1028.8  0.00  0.00   0.033   0.000   23.1    43    9.8   22.6   8.11  .0747    116    1    100.0    5 
22/03/19   8:40    9.0    9.0    8.9    86    6.8   5.0   SSW   0.42   8.0   SSW    7.8    9.1    7.9  1028.7  0.00  0.00   0.032   0.000   23.1    43    9.8   22.6   8.11  .0747    116    1    100.0    5 
22/03/19   8:45    8.9    9.0    8.9    86    6.7   9.0   SSW   0.75  12.0   SSW    6.4    8.9    6.4  1028.7  0.00  0.00   0.033   0.000   22.9    43    9.7   22.4   8.12  .0747    117    1    100.0    5 
22/03/19   8:50    8.9    8.9    8.8    86    6.7   6.0   SSW   0.50  10.0   SSW    7.4    8.9    7.4  1028.7  0.00  0.00   0.033   0.000   22.8    43    9.5   22.2   8.13  .0748    117    1    100.0    5 
22/03/19   8:55    9.1    9.1    8.9    87    7.0   6.0   SSW   0.50   8.0   SSW    7.6    9.1    7.7  1028.7  0.00  0.00   0.032   0.000   22.7    44    9.8   22.1   8.29  .0748    115    1    100.0    5 
22/03/19   9:00    9.1    9.1    9.1    87    7.1   5.0   SSW   0.42   8.0   SSW    7.9    9.2    8.0  1028.7  0.00  0.00   0.032   0.000   22.7    44    9.8   22.1   8.29  .0748    117    1    100.0    5 
22/03/19   9:05    9.1    9.1    9.1    87    7.1   7.0   SSW   0.58   8.0   SSW    7.4    9.2    7.4  1028.8  0.00  0.00   0.032   0.000   22.6    44    9.7   22.0   8.30  .0748    116    1    100.0    5 
22/03/19   9:10    9.1    9.1    9.1    86    6.8   7.0   SSW   0.58   9.0   SSW    7.3    9.1    7.4  1028.9  0.00  0.00   0.032   0.000   22.6    44    9.7   22.0   8.30  .0748    116    1    100.0    5 
22/03/19   9:15    9.1    9.1    9.1    86    6.8   7.0   SSW   0.58   9.0   SSW    7.3    9.1    7.4  1028.8  0.00  0.00   0.032   0.000   22.6    44    9.7   21.9   8.30  .0748    116    1    100.0    5 
22/03/19   9:20    9.1    9.1    9.0    87    7.0   5.0   SSW   0.42   7.0   SSW    7.9    9.1    7.9  1028.8  0.00  0.00   0.032   0.000   22.4    44    9.5   21.7   8.30  .0749    115    1    100.0    5 
22/03/19   9:25    9.0    9.1    9.0    86    6.8   6.0   SSW   0.50   9.0   SSW    7.5    9.1    7.6  1028.9  0.00  0.00   0.032   0.000   22.3    44    9.4   21.5   8.31  .0749    116    1    100.0    5 
22/03/19   9:30    9.0    9.1    9.0    86    6.8   6.0   SSW   0.50   9.0   SSW    7.5    9.1    7.6  1028.9  0.00  0.00   0.032   0.000   22.1    44    9.3   21.2   8.31  .0750    116    1    100.0    5 
22/03/19   9:35    9.1    9.1    9.0    87    7.0   5.0   SSW   0.42   7.0   SSW    7.9    9.1    7.9  1028.8  0.00  0.00   0.032   0.000   21.9    45    9.4   20.9   8.45  .0750    117    1    100.0    5 
22/03/19   9:40    9.1    9.1    9.0    87    7.0   6.0   SSW   0.50   9.0   SSW    7.6    9.1    7.7  1028.8  0.00  0.00   0.032   0.000   21.7    45    9.2   20.6   8.45  .0751    117    1    100.0    5 
22/03/19   9:45    9.1    9.1    9.1    86    6.8   6.0   SSW   0.50   8.0   SSW    7.6    9.1    7.7  1028.8  0.00  0.00   0.032   0.000   21.4    46    9.3   20.4   8.64  .0751    115    1    100.0    5 
22/03/19   9:50    9.1    9.1    9.1    86    6.9   6.0   SSW   0.50  10.0   WSW    7.7    9.2    7.7  1028.7  0.00  0.00   0.032   0.000   21.3    46    9.2   20.2   8.64  .0752    116    1    100.0    5 
22/03/19   9:55    9.1    9.1    9.1    86    6.8   7.0   WSW   0.58   9.0   WSW    7.3    9.1    7.4  1028.7  0.00  0.00   0.032   0.000   21.2    46    9.1   20.0   8.65  .0752    116    1    100.0    5 
22/03/19  10:00    9.1    9.1    9.0    86    6.8   7.0   WSW   0.58   8.0   WSW    7.3    9.1    7.4  1028.8  0.00  0.00   0.032   0.000   21.2    46    9.1   20.0   8.65  .0752    114    1    100.0    5 
22/03/19  10:05    9.1    9.1    9.1    86    6.8   6.0    SW   0.50   9.0    SW    7.6    9.1    7.7  1028.7  0.00  0.00   0.032   0.000   21.1    46    9.0   19.9   8.65  .0752    117    1    100.0    5 
22/03/19  10:10    9.1    9.1    9.1    86    6.8   8.0    SW   0.67  11.0    SW    6.9    9.1    7.0  1028.8  0.00  0.00   0.032   0.000   20.9    46    8.9   19.8   8.65  .0753    116    1    100.0    5 
22/03/19  10:15    9.2    9.2    9.1    86    7.0   7.0    SW   0.58  10.0    SW    7.5    9.3    7.6  1028.7  0.00  0.00   0.032   0.000   20.8    46    8.8   19.8   8.65  .0753    117    1    100.0    5 
22/03/19  10:20    9.2    9.3    9.2    86    7.0   6.0    SW   0.50   8.0    SW    7.8    9.3    7.8  1028.7  0.00  0.00   0.032   0.000   20.7    46    8.7   19.7   8.65  .0753    117    1    100.0    5 
22/03/19  10:25    9.3    9.3    9.2    86    7.1   7.0    SW   0.58  10.0    SW    7.6    9.3    7.6  1028.7  0.00  0.00   0.031   0.000   20.6    47    8.9   19.7   8.77  .0754    117    1    100.0    5 
22/03/19  10:30    9.3    9.3    9.3    86    7.1   7.0    SW   0.58   9.0    SW    7.6    9.3    7.6  1028.7  0.00  0.00   0.031   0.000   20.5    48    9.1   19.6   8.87  .0754    117    1    100.0    5 
22/03/19  10:35    9.3    9.3    9.3    86    7.1   6.0    SW   0.50   8.0    SW    7.8    9.3    7.9  1028.7  0.00  0.00   0.031   0.000   20.4    48    9.0   19.5   8.88  .0754    117    1    100.0    5 
22/03/19  10:40    9.2    9.3    9.2    86    7.0   6.0    SW   0.50   8.0    SW    7.8    9.3    7.8  1028.7  0.00  0.00   0.032   0.000   20.3    48    9.0   19.4   8.88  .0754    118    1    100.0    5 
22/03/19  10:45    9.2    9.3    9.2    86    7.0   6.0    SW   0.50   9.0    SW    7.8    9.3    7.8  1028.7  0.00  0.00   0.032   0.000   20.3    48    8.9   19.4   8.88  .0754    117    1    100.0    5 
22/03/19  10:50    9.2    9.2    9.2    86    7.0   6.0    SW   0.50   8.0    SW    7.8    9.3    7.8  1028.7  0.00  0.00   0.032   0.000   20.2    49    9.2   19.4   9.08  .0754    117    1    100.0    5 
22/03/19  10:55    9.2    9.2    9.2    86    7.0   6.0    SW   0.50   7.0    SW    7.8    9.3    7.8  1028.6  0.00  0.00   0.032   0.000   20.2    48    8.8   19.3   8.88  .0755    117    1    100.0    5 
22/03/19  11:00    9.2    9.2    9.2    86    7.0   6.0    SW   0.50   8.0    SW    7.8    9.3    7.8  1028.6  0.00  0.00   0.032   0.000   20.2    49    9.2   19.4   9.08  .0754    117    1    100.0    5 
22/03/19  11:05    9.2    9.3    9.2    86    7.0   6.0    SW   0.50   7.0    SW    7.8    9.3    7.8  1028.4  0.00  0.00   0.032   0.000   20.3    49    9.2   19.5   9.08  .0754    116    1    100.0    5 
22/03/19  11:10    9.3    9.3    9.2    86    7.1   6.0    SW   0.50   7.0    SW    7.8    9.3    7.9  1028.4  0.00  0.00   0.031   0.000   20.3    48    8.9   19.4   8.88  .0754    117    1    100.0    5 
22/03/19  11:15    9.4    9.4    9.3    86    7.2   5.0    SW   0.42   8.0    SW    8.3    9.4    8.3  1028.4  0.00  0.00   0.031   0.000   20.4    49    9.3   19.6   9.08  .0754    117    1    100.0    5 
22/03/19  11:20    9.4    9.4    9.4    86    7.2   3.0    SW   0.25   6.0    SW    9.2    9.5    9.2  1028.4  0.00  0.00   0.031   0.000   20.6    49    9.5   19.7   9.07  .0753    117    1    100.0    5 
22/03/19  11:25    9.5    9.5    9.4    86    7.3   4.0    SW   0.33   6.0    SW    8.8    9.6    8.8  1028.4  0.00  0.00   0.031   0.000   20.7    48    9.3   19.8   8.86  .0753    114    1    100.0    5 
22/03/19  11:30    9.4    9.5    9.4    86    7.2   6.0    SW   0.50   7.0    SW    8.1    9.5    8.1  1028.5  0.00  0.00   0.031   0.000   20.9    48    9.5   19.9   8.86  .0752    115    1    100.0    5 
22/03/19  11:35    9.4    9.4    9.4    86    7.2   6.0    SW   0.50   7.0    SW    8.0    9.4    8.1  1028.4  0.00  0.00   0.031   0.000   20.9    48    9.5   19.9   8.86  .0752    117    1    100.0    5 
22/03/19  11:40    9.4    9.4    9.3    86    7.2   4.0    SW   0.33   7.0    SW    8.7    9.4    8.7  1028.4  0.00  0.00   0.031   0.000   21.1    48    9.6   20.0   8.85  .0752    118    1    100.0    5 
22/03/19  11:45    9.4    9.4    9.4    86    7.2   5.0    SW   0.42   6.0    SW    8.3    9.4    8.3  1028.3  0.00  0.00   0.031   0.000   21.2    47    9.4   20.1   8.75  .0752    117    1    100.0    5 
22/03/19  11:50    9.3    9.4    9.3    86    7.1   5.0    SW   0.42   6.0    SW    8.2    9.4    8.3  1028.3  0.00  0.00   0.031   0.000   21.3    47    9.5   20.2   8.75  .0751    117    1    100.0    5 
22/03/19  11:55    9.3    9.4    9.3    86    7.1   5.0    SW   0.42   7.0    SW    8.2    9.4    8.3  1028.3  0.00  0.00   0.031   0.000   21.4    47    9.6   20.3   8.75  .0751    116    1    100.0    5 
22/03/19  12:00    9.4    9.4    9.3    86    7.2   6.0    SW   0.50   7.0    SW    8.0    9.4    8.1  1028.3  0.00  0.00   0.031   0.000   21.6    47    9.8   20.6   8.75  .0750    116    1    100.0    5 
22/03/19  12:05    9.4    9.4    9.4    86    7.2   5.0    SW   0.42   7.0    SW    8.3    9.5    8.4  1028.2  0.00  0.00   0.031   0.000   21.7    47    9.9   20.8   8.75  .0750    117    1    100.0    5 
22/03/19  12:10    9.4    9.4    9.4    86    7.2   4.0    SW   0.33   6.0    SW    8.7    9.5    8.8  1028.1  0.00  0.00   0.031   0.000   21.9    47   10.1   21.1   8.75  .0749    117    1    100.0    5 
22/03/19  12:15    9.4    9.4    9.4    86    7.2   5.0    SW   0.42   7.0    SW    8.3    9.4    8.3  1028.1  0.00  0.00   0.031   0.000   22.0    46    9.8   21.2   8.62  .0749    115    1    100.0    5 
22/03/19  12:20    9.3    9.4    9.3    86    7.1   5.0    SW   0.42   6.0    SW    8.2    9.3    8.2  1028.0  0.00  0.00   0.031   0.000   22.0    46    9.8   21.2   8.62  .0749    117    1    100.0    5 
22/03/19  12:25    9.3    9.3    9.2    86    7.1   6.0    SW   0.50   7.0    SW    7.8    9.3    7.9  1028.1  0.00  0.00   0.031   0.000   21.9    46    9.7   21.0   8.62  .0749    117    1    100.0    5 
22/03/19  12:30    9.3    9.3    9.3    86    7.1   5.0    SW   0.42   7.0    SW    8.2    9.4    8.3  1028.0  0.00  0.00   0.031   0.000   21.7    46    9.5   20.7   8.63  .0750    117    1    100.0    5 
22/03/19  12:35    9.4    9.4    9.3    86    7.2   5.0    SW   0.42   6.0    SW    8.3    9.5    8.4  1028.1  0.00  0.00   0.031   0.000   21.6    46    9.5   20.6   8.63  .0750    117    1    100.0    5 
22/03/19  12:40    9.3    9.4    9.3    86    7.1   5.0    SW   0.42   8.0    SW    8.2    9.4    8.3  1028.0  0.00  0.00   0.031   0.000   21.6    46    9.4   20.5   8.63  .0750    116    1    100.0    5 
22/03/19  12:45    9.4    9.4    9.3    86    7.2   6.0    SW   0.50   8.0    SW    8.0    9.4    8.1  1027.9  0.00  0.00   0.031   0.000   21.4    46    9.3   20.4   8.64  .0751    117    1    100.0    5 
22/03/19  12:50    9.3    9.4    9.3    86    7.1   6.0    SW   0.50   8.0    SW    7.9    9.4    8.0  1027.8  0.00  0.00   0.031   0.000   21.2    46    9.1   20.1   8.65  .0751    116    1    100.0    5 
22/03/19  12:55    9.3    9.3    9.3    86    7.1   5.0    SW   0.42   7.0    SW    8.2    9.4    8.3  1027.7  0.00  0.00   0.031   0.000   21.1    47    9.3   19.9   8.75  .0751    117    1    100.0    5 
22/03/19  13:00    9.4    9.4    9.4    86    7.2   5.0    SW   0.42   7.0    SW    8.3    9.5    8.4  1027.7  0.00  0.00   0.031   0.000   21.0    47    9.3   19.9   8.75  .0752    117    1    100.0    5 
22/03/19  13:05    9.6    9.6    9.4    86    7.3   4.0    SW   0.33   6.0    SW    8.8    9.6    8.9  1027.6  0.00  0.00   0.030   0.000   21.1    47    9.4   20.0   8.75  .0751    117    1    100.0    5 
22/03/19  13:10    9.6    9.6    9.6    86    7.3   5.0    SW   0.42   7.0    SW    8.4    9.6    8.5  1027.6  0.00  0.00   0.030   0.000   21.3    47    9.6   20.3   8.75  .0751    117    1    100.0    5 
22/03/19  13:15    9.5    9.6    9.5    86    7.3   5.0    SW   0.42   7.0    SW    8.4    9.6    8.4  1027.6  0.00  0.00   0.031   0.000   21.5    47    9.7   20.5   8.75  .0750    117    1    100.0    5 
22/03/19  13:20    9.5    9.5    9.5    86    7.3   5.0    SW   0.42   7.0    SW    8.4    9.6    8.4  1027.6  0.00  0.00   0.031   0.000   21.6    47    9.8   20.7   8.75  .0750    117    1    100.0    5 
22/03/19  13:25    9.4    9.5    9.4    86    7.2   4.0    SW   0.33   6.0    SW    8.7    9.5    8.8  1027.6  0.00  0.00   0.031   0.000   21.7    47    9.9   20.7   8.75  .0749    117    1    100.0    5 
22/03/19  13:30    9.4    9.4    9.4    86    7.2   5.0    SW   0.42   7.0    SW    8.3    9.5    8.4  1027.6  0.00  0.00   0.031   0.000   21.7    47    9.9   20.7   8.75  .0749    116    1    100.0    5 
22/03/19  13:35    9.4    9.4    9.4    86    7.2   5.0    SW   0.42   7.0    SW    8.3    9.5    8.4  1027.6  0.00  0.00   0.031   0.000   21.6    47    9.8   20.6   8.75  .0750    117    1    100.0    5 
22/03/19  13:40    9.3    9.4    9.3    86    7.1   7.0    SW   0.58   8.0    SW    7.7    9.4    7.7  1027.6  0.00  0.00   0.031   0.000   21.5    47    9.7   20.5   8.75  .0750    117    1    100.0    5 
22/03/19  13:45    9.3    9.3    9.3    86    7.1   6.0    SW   0.50   8.0    SW    7.9    9.4    8.0  1027.6  0.00  0.00   0.031   0.000   21.4    47    9.6   20.3   8.75  .0750    117    1    100.0    5 
22/03/19  13:50    9.3    9.3    9.2    86    7.1   6.0    SW   0.50   7.0    SW    7.8    9.3    7.9  1027.5  0.00  0.00   0.031   0.000   21.3    47    9.5   20.2   8.75  .0751    118    1    100.0    5 
22/03/19  13:55    9.3    9.3    9.2    86    7.1   5.0    SW   0.42   7.0    SW    8.2    9.3    8.2  1027.5  0.00  0.00   0.031   0.000   21.2    47    9.4   20.1   8.75  .0751    117    1    100.0    5 
22/03/19  14:00    9.3    9.3    9.2    86    7.1   5.0    SW   0.42   7.0    SW    8.2    9.3    8.2  1027.4  0.00  0.00   0.031   0.000   21.1    47    9.4   20.0   8.75  .0751    117    1    100.0    5 
22/03/19  14:05    9.3    9.3    9.2    86    7.1   5.0    SW   0.42   6.0    SW    8.2    9.3    8.2  1027.4  0.00  0.00   0.031   0.000   21.1    47    9.4   20.0   8.75  .0751    117    1    100.0    5 
22/03/19  14:10    9.3    9.3    9.3    86    7.1   5.0    SW   0.42   7.0    SW    8.2    9.4    8.3  1027.4  0.00  0.00   0.031   0.000   21.1    48    9.6   20.0   8.85  .0751    117    1    100.0    5 
22/03/19  14:15    9.2    9.3    9.2    86    7.0   6.0    SW   0.50   8.0    SW    7.8    9.3    7.8  1027.4  0.00  0.00   0.032   0.000   20.9    48    9.5   19.9   8.86  .0752    116    1    100.0    5 
22/03/19  14:20    9.2    9.2    9.2    86    7.0   6.0    SW   0.50   8.0    SW    7.8    9.3    7.8  1027.4  0.00  0.00   0.032   0.000   20.8    48    9.4   19.8   8.86  .0752    116    1    100.0    5 
22/03/19  14:25    9.2    9.2    9.2    87    7.2   7.0    SW   0.58   8.0    SW    7.5    9.3    7.6  1027.4  0.00  0.00   0.032   0.000   20.6    49    9.5   19.7   9.07  .0752    116    1    100.0    5 
22/03/19  14:30    9.2    9.2    9.2    87    7.1   7.0    SW   0.58   9.0    SW    7.4    9.2    7.5  1027.5  0.00  0.00   0.032   0.000   20.5    49    9.4   19.7   9.07  .0753    116    1    100.0    5 
22/03/19  14:35    9.1    9.2    9.1    87    7.1   6.0    SW   0.50   8.0    SW    7.7    9.2    7.7  1027.5  0.00  0.00   0.032   0.000   20.4    49    9.4   19.6   9.07  .0753    117    1    100.0    5 
22/03/19  14:40    9.1    9.1    9.1    87    7.1   6.0    SW   0.50   8.0    SW    7.7    9.2    7.7  1027.4  0.00  0.00   0.032   0.000   20.4    49    9.3   19.6   9.08  .0753    117    1    100.0    5 
22/03/19  14:45    9.0    9.1    9.0    87    7.0   6.0    SW   0.50   8.0    SW    7.5    9.1    7.6  1027.5  0.00  0.00   0.032   0.000   20.3    49    9.2   19.5   9.08  .0753    117    1    100.0    5 
22/03/19  14:50    8.9    9.0    8.9    87    6.9   5.0    SW   0.42   7.0    SW    7.8    9.0    7.8  1027.3  0.00  0.00   0.033   0.000   20.2    49    9.1   19.4   9.08  .0754    116    1    100.0    5 
22/03/19  14:55    9.0    9.0    8.9    87    7.0   5.0    SW   0.42   7.0    SW    7.8    9.1    7.9  1027.3  0.00  0.00   0.032   0.000   20.2    49    9.1   19.4   9.08  .0754    118    1    100.0    5 
22/03/19  15:00    9.1    9.1    9.0    87    7.1   6.0    SW   0.50   8.0    SW    7.7    9.2    7.7  1027.3  0.00  0.00   0.032   0.000   20.2    49    9.2   19.4   9.08  .0753    116    1    100.0    5 
22/03/19  15:05    9.2    9.2    9.1    87    7.1   5.0    SW   0.42   8.0    SW    8.1    9.2    8.1  1027.2  0.00  0.00   0.032   0.000   20.1    50    9.4   19.4   9.29  .0753    117    1    100.0    5 
22/03/19  15:10    9.3    9.3    9.2    87    7.2   4.0    SW   0.33   6.0    SW    8.6    9.4    8.7  1027.1  0.00  0.00   0.031   0.000   20.1    50    9.4   19.4   9.29  .0753    117    1    100.0    5 
22/03/19  15:15    9.2    9.3    9.2    87    7.2   5.0    SW   0.42   7.0    SW    8.1    9.3    8.2  1027.1  0.00  0.00   0.032   0.000   20.2    50    9.5   19.5   9.28  .0753    117    1    100.0    5 
22/03/19  15:20    9.2    9.2    9.2    87    7.1   5.0    SW   0.42   7.0    SW    8.1    9.2    8.1  1027.1  0.00  0.00   0.032   0.000   20.2    50    9.4   19.4   9.28  .0753    117    1    100.0    5 
22/03/19  15:25    9.2    9.2    9.1    87    7.1   4.0    SW   0.33   6.0    SW    8.4    9.2    8.5  1027.1  0.00  0.00   0.032   0.000   20.2    50    9.4   19.4   9.28  .0753    117    1    100.0    5 
22/03/19  15:30    9.2    9.2    9.2    87    7.2   4.0    SW   0.33   7.0    SW    8.5    9.3    8.6  1027.1  0.00  0.00   0.032   0.000   20.2    50    9.4   19.4   9.28  .0753    117    1    100.0    5 
22/03/19  15:35    9.2    9.2    9.2    87    7.1   5.0    SW   0.42   7.0    SW    8.1    9.2    8.1  1027.1  0.00  0.00   0.032   0.000   20.2    49    9.2   19.4   9.08  .0753    117    1    100.0    5 
22/03/19  15:40    9.1    9.2    9.1    87    7.0   5.0    SW   0.42   7.0    SW    7.9    9.1    7.9  1027.0  0.00  0.00   0.032   0.000   20.2    49    9.1   19.4   9.08  .0753    117    1    100.0    5 
22/03/19  15:45    9.1    9.1    9.1    87    7.0   5.0    SW   0.42   7.0    SW    7.9    9.1    7.9  1027.0  0.00  0.00   0.032   0.000   20.1    49    9.1   19.3   9.09  .0753    116    1    100.0    5 
22/03/19  15:50    9.1    9.1    9.1    87    7.1   5.0    SW   0.42   7.0    SW    7.9    9.2    8.0  1027.0  0.00  0.00   0.032   0.000   20.1    50    9.3   19.3   9.29  .0753    117    1    100.0    5 
22/03/19  15:55    9.1    9.1    9.1    87    7.1   5.0    SW   0.42   7.0    SW    7.9    9.2    8.0  1026.9  0.00  0.00   0.032   0.000   20.1    50    9.4   19.4   9.29  .0753    116    1    100.0    5 
22/03/19  16:00    9.1    9.1    9.1    87    7.1   5.0    SW   0.42   6.0    SW    7.9    9.2    8.0  1026.9  0.00  0.00   0.032   0.000   20.1    50    9.4   19.4   9.29  .0753    116    1    100.0    5 
22/03/19  16:05    9.1    9.1    9.1    87    7.1   5.0    SW   0.42   7.0    SW    7.9    9.2    8.0  1026.9  0.00  0.00   0.032   0.000   20.1    50    9.4   19.4   9.29  .0753    116    1    100.0    5 
22/03/19  16:10    9.1    9.1    9.1    87    7.0   5.0    SW   0.42   6.0    SW    7.9    9.1    7.9  1026.9  0.00  0.00   0.032   0.000   20.1    50    9.4   19.4   9.29  .0753    115    1    100.0    5 
22/03/19  16:15    9.1    9.1    9.1    87    7.0   5.0    SW   0.42   7.0    SW    7.9    9.1    7.9  1027.0  0.00  0.00   0.032   0.000   20.1    50    9.4   19.4   9.29  .0753    117    1    100.0    5 
22/03/19  16:20    9.1    9.1    9.1    87    7.0   5.0    SW   0.42   8.0    SW    7.9    9.1    7.9  1026.9  0.00  0.00   0.032   0.000   20.1    50    9.4   19.4   9.29  .0753    117    1    100.0    5 
22/03/19  16:25    9.1    9.1    9.1    87    7.0   6.0    SW   0.50   9.0    SW    7.6    9.1    7.7  1027.0  0.00  0.00   0.032   0.000   20.1    50    9.4   19.4   9.29  .0753    117    1    100.0    5 
22/03/19  16:30    9.1    9.1    9.1    87    7.1   5.0    SW   0.42   8.0    SW    7.9    9.2    8.0  1026.9  0.00  0.00   0.032   0.000   20.1    50    9.4   19.4   9.29  .0753    116    1    100.0    5 
22/03/19  16:35    9.1    9.1    9.1    87    7.1   5.0    SW   0.42   6.0    SW    7.9    9.2    8.0  1026.9  0.00  0.00   0.032   0.000   20.1    50    9.3   19.3   9.29  .0753    116    1    100.0    5 
22/03/19  16:40    9.1    9.1    9.1    87    7.1   6.0    SW   0.50   8.0    SW    7.7    9.2    7.7  1026.9  0.00  0.00   0.032   0.000   20.1    50    9.3   19.3   9.29  .0753    117    1    100.0    5 
22/03/19  16:45    9.1    9.2    9.1    87    7.1   6.0    SW   0.50   8.0    SW    7.7    9.2    7.7  1026.9  0.00  0.00   0.032   0.000   20.0    50    9.3   19.3   9.29  .0754    114    1    100.0    5 
22/03/19  16:50    9.1    9.1    9.1    87    7.1   4.0    SW   0.33   7.0    SW    8.3    9.2    8.4  1026.9  0.00  0.00   0.032   0.000   19.9    50    9.2   19.2   9.29  .0754    117    1    100.0    5 
22/03/19  16:55    9.1    9.1    9.1    87    7.1   5.0    SW   0.42   7.0    SW    7.9    9.2    8.0  1026.9  0.00  0.00   0.032   0.000   19.9    50    9.2   19.2   9.29  .0754    117    1    100.0    5 
22/03/19  17:00    9.1    9.1    9.1    87    7.1   5.0    SW   0.42   7.0    SW    7.9    9.2    8.0  1026.9  0.00  0.00   0.032   0.000   19.9    50    9.2   19.2   9.29  .0754    117    1    100.0    5 
22/03/19  17:05    9.1    9.1    9.1    87    7.1   5.0    SW   0.42   7.0    SW    7.9    9.2    8.0  1026.9  0.00  0.00   0.032   0.000   19.9    50    9.2   19.2   9.29  .0754    117    1    100.0    5 
22/03/19  17:10    9.1    9.1    9.1    87    7.0   5.0    SW   0.42   7.0    SW    7.9    9.1    7.9  1026.9  0.00  0.00   0.032   0.000   19.9    50    9.2   19.2   9.29  .0754    116    1    100.0    5 
22/03/19  17:15    9.1    9.1    9.1    87    7.1   5.0    SW   0.42   6.0    SW    7.9    9.2    8.0  1026.9  0.00  0.00   0.032   0.000   19.9    50    9.2   19.2   9.29  .0754    117    1    100.0    5 
22/03/19  17:20    9.1    9.1    9.1    87    7.1   4.0    SW   0.33   6.0    SW    8.3    9.2    8.4  1026.8  0.00  0.00   0.032   0.000   20.1    50    9.4   19.4   9.29  .0753    117    1    100.0    5 
22/03/19  17:25    9.1    9.1    9.1    87    7.1   5.0    SW   0.42   6.0    SW    7.9    9.2    8.0  1026.8  0.00  0.00   0.032   0.000   20.2    50    9.5   19.5   9.28  .0753    115    1    100.0    5 
22/03/19  17:30    9.1    9.1    9.1    87    7.0   5.0    SW   0.42   7.0    SW    7.9    9.1    7.9  1026.9  0.00  0.00   0.032   0.000   20.3    50    9.6   19.6   9.28  .0753    117    1    100.0    5 
22/03/19  17:35    9.0    9.1    9.0    87    7.0   6.0    SW   0.50   9.0    SW    7.5    9.1    7.6  1026.9  0.00  0.00   0.032   0.000   20.4    49    9.3   19.6   9.08  .0752    117    1    100.0    5 
22/03/19  17:40    9.0    9.0    9.0    87    7.0   6.0    SW   0.50   8.0    SW    7.5    9.1    7.6  1026.9  0.00  0.00   0.032   0.000   20.4    49    9.4   19.6   9.07  .0752    117    1    100.0    5 
22/03/19  17:45    9.0    9.1    9.0    87    7.0   6.0    SW   0.50   8.0    SW    7.5    9.1    7.6  1026.9  0.00  0.00   0.032   0.000   20.4    49    9.4   19.6   9.07  .0752    117    1    100.0    5 
22/03/19  17:50    9.1    9.1    9.0    87    7.0   4.0    SW   0.33   6.0    SW    8.3    9.1    8.3  1026.9  0.00  0.00   0.032   0.000   20.5    49    9.4   19.7   9.07  .0752    117    1    100.0    5 
22/03/19  17:55    9.1    9.1    9.1    87    7.0   4.0    SW   0.33   6.0    SW    8.3    9.1    8.3  1026.9  0.00  0.00   0.032   0.000   20.6    49    9.5   19.8   9.07  .0752    117    1    100.0    5 
22/03/19  18:00    9.1    9.1    9.1    87    7.0   3.0    SW   0.25   7.0    SW    8.7    9.1    8.8  1027.1  0.00  0.00   0.032   0.000   20.8    49    9.7   19.9   9.06  .0751    117    1    100.0    5 
22/03/19  18:05    9.1    9.1    9.1    87    7.0   5.0    SW   0.42   7.0    SW    7.9    9.1    7.9  1027.1  0.00  0.00   0.032   0.000   20.8    49    9.7   19.9   9.06  .0751    118    1    100.0    5 
22/03/19  18:10    9.1    9.1    9.1    87    7.1   4.0    SW   0.33   6.0    SW    8.3    9.2    8.4  1027.2  0.00  0.00   0.032   0.000   20.9    48    9.5   19.9   8.86  .0751    117    1    100.0    5 
22/03/19  18:15    9.1    9.1    9.1    87    7.1   4.0    SW   0.33   6.0    SW    8.3    9.2    8.4  1027.2  0.00  0.00   0.032   0.000   20.9    48    9.5   19.9   8.86  .0751    116    1    100.0    5 
22/03/19  18:20    9.2    9.2    9.1    87    7.1   3.0    SW   0.25   6.0    SW    8.9    9.2    8.9  1027.3  0.00  0.00   0.032   0.000   21.0    48    9.6   20.0   8.85  .0751    116    1    100.0    5 
22/03/19  18:25    9.2    9.2    9.2    87    7.1   5.0    SW   0.42   8.0    SW    8.1    9.2    8.1  1027.3  0.00  0.00   0.032   0.000   21.1    48    9.6   20.0   8.85  .0751    115    1    100.0    5 
22/03/19  18:30    9.2    9.2    9.2    87    7.1   5.0    SW   0.42   8.0    SW    8.1    9.2    8.1  1027.3  0.00  0.00   0.032   0.000   21.1    48    9.6   20.0   8.85  .0751    117    1    100.0    5 
22/03/19  18:35    9.2    9.2    9.2    87    7.1   4.0    SW   0.33   6.0    SW    8.4    9.2    8.5  1027.4  0.00  0.00   0.032   0.000   21.2    48    9.7   20.1   8.85  .0751    117    1    100.0    5 
22/03/19  18:40    9.2    9.2    9.2    87    7.2   3.0    SW   0.25   6.0    SW    8.9    9.3    9.0  1027.4  0.00  0.00   0.032   0.000   21.2    48    9.8   20.2   8.85  .0751    116    1    100.0    5 
22/03/19  18:45    9.2    9.2    9.2    87    7.2   3.0    SW   0.25   6.0    SW    8.9    9.3    9.0  1027.5  0.00  0.00   0.032   0.000   21.3    48    9.8   20.3   8.86  .0750    116    1    100.0    5 
22/03/19  18:50    9.2    9.2    9.2    87    7.2   3.0    SW   0.25   5.0    SW    8.9    9.3    9.0  1027.5  0.00  0.00   0.032   0.000   21.4    48    9.9   20.4   8.86  .0750    117    1    100.0    5 
22/03/19  18:55    9.2    9.2    9.2    87    7.2   2.0    SW   0.17   4.0    SW    9.2    9.3    9.3  1027.5  0.00  0.00   0.032   0.000   21.5    48   10.0   20.6   8.86  .0750    117    1    100.0    5 
22/03/19  19:00    9.2    9.2    9.2    87    7.2   2.0    SW   0.17   4.0    SW    9.2    9.3    9.3  1027.5  0.00  0.00   0.032   0.000   21.6    48   10.1   20.6   8.87  .0750    117    1    100.0    5 
22/03/19  19:05    9.2    9.2    9.2    87    7.2   3.0    SW   0.25   5.0    SW    8.9    9.3    9.0  1027.6  0.00  0.00   0.032   0.000   21.7    47    9.9   20.7   8.75  .0749    116    1    100.0    5 
22/03/19  19:10    9.2    9.3    9.2    87    7.2   2.0    SW   0.17   5.0    SW    9.2    9.3    9.3  1027.6  0.00  0.00   0.032   0.000   21.7    47    9.9   20.7   8.75  .0749    117    1    100.0    5 
22/03/19  19:15    9.2    9.3    9.2    87    7.2   3.0    SW   0.25   5.0    SW    8.9    9.3    9.0  1027.6  0.00  0.00   0.032   0.000   21.8    47   10.0   20.9   8.75  .0749    116    1    100.0    5 
22/03/19  19:20    9.2    9.3    9.2    87    7.2   3.0    SW   0.25   5.0    SW    8.9    9.3    9.0  1027.6  0.00  0.00   0.032   0.000   21.8    47   10.0   20.9   8.75  .0749    116    1    100.0    5 
22/03/19  19:25    9.3    9.3    9.2    87    7.2   3.0    SW   0.25   6.0    SW    9.0    9.4    9.1  1027.7  0.00  0.00   0.031   0.000   21.8    47   10.0   20.9   8.75  .0749    117    1    100.0    5 
22/03/19  19:30    9.3    9.3    9.3    87    7.2   3.0    SW   0.25   6.0    SW    9.0    9.4    9.1  1027.8  0.00  0.00   0.031   0.000   21.8    47   10.0   20.9   8.75  .0749    117    1    100.0    5 
22/03/19  19:35    9.3    9.3    9.3    87    7.2   4.0    SW   0.33   6.0    SW    8.6    9.4    8.7  1027.8  0.00  0.00   0.031   0.000   21.8    47   10.0   20.9   8.75  .0749    116    1    100.0    5 
22/03/19  19:40    9.3    9.3    9.3    87    7.2   4.0    SW   0.33   7.0    SW    8.6    9.4    8.7  1027.8  0.00  0.00   0.031   0.000   21.7    47    9.9   20.8   8.75  .0749    117    1    100.0    5 
22/03/19  19:45    9.3    9.3    9.3    87    7.3   4.0    SW   0.33   7.0    SW    8.6    9.4    8.7  1027.7  0.00  0.00   0.031   0.000   21.7    47    9.9   20.8   8.75  .0749    117    1    100.0    5 
22/03/19  19:50    9.3    9.3    9.3    87    7.3   5.0    SW   0.42   9.0    SW    8.2    9.4    8.3  1027.8  0.00  0.00   0.031   0.000   21.7    47    9.9   20.7   8.75  .0750    116    1    100.0    5 
22/03/19  19:55    9.3    9.3    9.3    87    7.3   6.0    SW   0.50   8.0    SW    7.9    9.4    8.1  1027.8  0.00  0.00   0.031   0.000   21.7    47    9.9   20.7   8.75  .0750    117    1    100.0    5 
22/03/19  20:00    9.3    9.3    9.3    87    7.2   6.0    SW   0.50   8.0    SW    7.8    9.4    7.9  1027.8  0.00  0.00   0.031   0.000   21.6    47    9.8   20.6   8.75  .0750    117    1    100.0    5 
22/03/19  20:05    9.3    9.3    9.3    87    7.2   6.0    SW   0.50   8.0    SW    7.8    9.4    7.9  1027.8  0.00  0.00   0.031   0.000   21.5    48   10.0   20.6   8.86  .0750    115    1    100.0    5 
22/03/19  20:10    9.2    9.3    9.2    87    7.2   6.0    SW   0.50   7.0    SW    7.8    9.3    7.8  1027.8  0.00  0.00   0.032   0.000   21.3    48    9.9   20.3   8.86  .0750    118    1    100.0    5 
22/03/19  20:15    9.3    9.3    9.2    87    7.2   5.0    SW   0.42   7.0    SW    8.2    9.4    8.3  1027.9  0.00  0.00   0.031   0.000   21.3    48    9.8   20.3   8.86  .0751    117    1    100.0    5 
22/03/19  20:20    9.2    9.3    9.2    87    7.2   5.0    SW   0.42   7.0    SW    8.1    9.3    8.2  1027.9  0.00  0.00   0.032   0.000   21.3    48    9.8   20.3   8.86  .0751    117    1    100.0    5 
22/03/19  20:25    9.2    9.2    9.2    87    7.2   5.0    SW   0.42   6.0    SW    8.1    9.3    8.2  1027.9  0.00  0.00   0.032   0.000   21.2    48    9.8   20.2   8.85  .0751    117    1    100.0    5 
22/03/19  20:30    9.2    9.2    9.2    87    7.2   4.0    SW   0.33   6.0    SW    8.5    9.3    8.6  1027.9  0.00  0.00   0.032   0.000   21.2    48    9.7   20.1   8.85  .0751    117    1    100.0    5 
22/03/19  20:35    9.2    9.2    9.2    87    7.2   6.0    SW   0.50   8.0    SW    7.8    9.3    7.8  1028.0  0.00  0.00   0.032   0.000   21.1    48    9.6   20.0   8.85  .0751    115    1    100.0    5 
22/03/19  20:40    9.2    9.2    9.2    87    7.1   6.0    SW   0.50   8.0    SW    7.7    9.2    7.8  1028.0  0.00  0.00   0.032   0.000   20.9    49    9.8   20.0   9.06  .0752    117    1    100.0    5 
22/03/19  20:45    9.2    9.2    9.2    87    7.1   6.0    SW   0.50   7.0    SW    7.7    9.2    7.8  1027.9  0.00  0.00   0.032   0.000   20.8    49    9.7   19.9   9.06  .0752    117    1    100.0    5 
22/03/19  20:50    9.2    9.2    9.2    87    7.1   6.0    SW   0.50   8.0    SW    7.7    9.2    7.8  1027.9  0.00  0.00   0.032   0.000   20.7    49    9.6   19.8   9.07  .0752    116    1    100.0    5 
22/03/19  20:55    9.2    9.2    9.2    87    7.1   6.0    SW   0.50   8.0    SW    7.7    9.2    7.8  1027.9  0.00  0.00   0.032   0.000   20.5    50    9.7   19.7   9.27  .0753    117    1    100.0    5 
22/03/19  21:00    9.2    9.2    9.2    87    7.1   6.0    SW   0.50   8.0    SW    7.7    9.2    7.8  1027.8  0.00  0.00   0.032   0.000   20.3    50    9.6   19.6   9.28  .0753    117    1    100.0    5 
22/03/19  21:05    9.2    9.2    9.2    87    7.1   5.0    SW   0.42   8.0    SW    8.1    9.2    8.1  1027.8  0.00  0.00   0.032   0.000   20.2    50    9.5   19.5   9.28  .0754    116    1    100.0    5 
22/03/19  21:10    9.2    9.2    9.1    87    7.1   5.0    SW   0.42   8.0    SW    8.1    9.2    8.1  1027.8  0.00  0.00   0.032   0.000   20.2    50    9.5   19.5   9.28  .0754    116    1    100.0    5 
22/03/19  21:15    9.1    9.2    9.1    87    7.1   5.0    SW   0.42   7.0    SW    7.9    9.2    8.0  1027.8  0.00  0.00   0.032   0.000   20.2    50    9.5   19.5   9.28  .0754    117    1    100.0    5 
22/03/19  21:20    9.1    9.2    9.1    87    7.1   6.0    SW   0.50   7.0    SW    7.7    9.2    7.7  1027.8  0.00  0.00   0.032   0.000   20.2    51    9.7   19.5   9.48  .0754    117    1    100.0    5 
22/03/19  21:25    9.1    9.2    9.1    87    7.1   6.0    SW   0.50   8.0    SW    7.7    9.2    7.7  1027.7  0.00  0.00   0.032   0.000   20.1    51    9.7   19.4   9.49  .0754    117    1    100.0    5 
22/03/19  21:30    9.1    9.2    9.1    87    7.1   6.0    SW   0.50   8.0    SW    7.7    9.2    7.7  1027.7  0.00  0.00   0.032   0.000   20.1    51    9.6   19.4   9.49  .0754    116    1    100.0    5 
22/03/19  21:35    9.1    9.1    9.1    87    7.1   5.0    SW   0.42   6.0    SW    7.9    9.2    8.0  1027.8  0.00  0.00   0.032   0.000   20.1    51    9.6   19.4   9.49  .0754    117    1    100.0    5 
22/03/19  21:40    9.1    9.1    9.1    87    7.1   4.0    SW   0.33   6.0    SW    8.3    9.2    8.4  1027.7  0.00  0.00   0.032   0.000   20.2    51    9.7   19.5   9.48  .0753    117    1    100.0    5 
22/03/19  21:45    9.1    9.2    9.1    87    7.1   4.0    SW   0.33   6.0    SW    8.3    9.2    8.4  1027.8  0.00  0.00   0.032   0.000   20.3    51    9.8   19.6   9.48  .0753    117    1    100.0    5 
22/03/19  21:50    9.1    9.1    9.1    87    7.1   5.0    SW   0.42   7.0    SW    7.9    9.2    8.0  1027.8  0.00  0.00   0.032   0.000   20.5    50    9.7   19.7   9.27  .0753    117    1    100.0    5 
22/03/19  21:55    9.1    9.1    9.1    87    7.1   4.0    SW   0.33   6.0    SW    8.3    9.2    8.4  1027.9  0.00  0.00   0.032   0.000   20.6    50    9.8   19.8   9.27  .0752    117    1    100.0    5 
22/03/19  22:00    9.2    9.2    9.1    87    7.1   4.0    SW   0.33   7.0    SW    8.4    9.2    8.5  1028.0  0.00  0.00   0.032   0.000   20.7    50    9.9   19.9   9.26  .0752    117    1    100.0    5 
22/03/19  22:05    9.2    9.2    9.1    87    7.1   3.0    SW   0.25   5.0    SW    8.9    9.2    8.9  1028.0  0.00  0.00   0.032   0.000   20.8    49    9.7   19.9   9.06  .0752    116    1    100.0    5 
22/03/19  22:10    9.2    9.2    9.1    87    7.1   3.0    SW   0.25   6.0    SW    8.9    9.2    8.9  1027.9  0.00  0.00   0.032   0.000   20.9    49    9.8   20.0   9.06  .0752    115    1    100.0    5 
22/03/19  22:15    9.1    9.2    9.1    87    7.1   3.0    SW   0.25   6.0    SW    8.8    9.2    8.8  1027.9  0.00  0.00   0.032   0.000   21.1    49    9.9   20.1   9.05  .0751    117    1    100.0    5 
22/03/19  22:20    9.1    9.1    9.1    87    7.1   3.0    SW   0.25   6.0    SW    8.8    9.2    8.8  1028.1  0.00  0.00   0.032   0.000   21.1    49   10.0   20.1   9.05  .0751    118    1    100.0    5 
22/03/19  22:25    9.1    9.1    9.1    87    7.1   3.0    SW   0.25   6.0    SW    8.8    9.2    8.8  1028.0  0.00  0.00   0.032   0.000   21.2    49   10.0   20.2   9.05  .0751    115    1    100.0    5 
22/03/19  22:30    9.1    9.1    9.1    87    7.1   3.0    SW   0.25   5.0    SW    8.8    9.2    8.8  1028.0  0.00  0.00   0.032   0.000   21.2    49   10.0   20.2   9.05  .0751    117    1    100.0    5 
22/03/19  22:35    9.1    9.1    9.1    87    7.1   4.0    SW   0.33   6.0    SW    8.3    9.2    8.4  1028.0  0.00  0.00   0.032   0.000   21.3    49   10.1   20.3   9.05  .0751    117    1    100.0    5 
22/03/19  22:40    9.1    9.1    9.1    87    7.1   3.0    SW   0.25   5.0    SW    8.8    9.2    8.8  1028.1  0.00  0.00   0.032   0.000   21.3    49   10.2   20.4   9.05  .0750    117    1    100.0    5 
22/03/19  22:45    9.1    9.1    9.1    87    7.1   2.0    SW   0.17   5.0    SW    9.1    9.2    9.2  1028.1  0.00  0.00   0.032   0.000   21.4    48    9.9   20.4   8.86  .0751    117    1    100.0    5 
22/03/19  22:50    9.1    9.2    9.1    87    7.1   3.0    SW   0.25   5.0    SW    8.8    9.2    8.8  1028.2  0.00  0.00   0.032   0.000   21.5    48   10.0   20.6   8.86  .0750    117    1    100.0    5 
22/03/19  22:55    9.1    9.2    9.1    87    7.1   3.0    SW   0.25   6.0    SW    8.8    9.2    8.8  1028.2  0.00  0.00   0.032   0.000   21.6    48   10.1   20.6   8.87  .0750    117    1    100.0    5 
22/03/19  23:00    9.2    9.2    9.1    87    7.1   4.0    SW   0.33   6.0    SW    8.4    9.2    8.5  1028.1  0.00  0.00   0.032   0.000   21.6    48   10.1   20.7   8.87  .0750    115    1    100.0    5 
22/03/19  23:05    9.2    9.2    9.1    87    7.1   3.0    SW   0.25   6.0    SW    8.9    9.2    8.9  1028.1  0.00  0.00   0.032   0.000   21.7    48   10.2   20.8   8.87  .0750    117    1    100.0    5 
22/03/19  23:10    9.1    9.2    9.1    87    7.1   3.0    SW   0.25   6.0    SW    8.8    9.2    8.8  1028.1  0.00  0.00   0.032   0.000   21.7    48   10.2   20.9   8.87  .0749    116    1    100.0    5 
22/03/19  23:15    9.1    9.1    9.1    87    7.1   2.0    SW   0.17   5.0    SW    9.1    9.2    9.2  1028.0  0.00  0.00   0.032   0.000   21.8    48   10.3   20.9   8.87  .0749    116    1    100.0    5 
22/03/19  23:20    9.1    9.2    9.1    87    7.1   2.0    SW   0.17   5.0    SW    9.1    9.2    9.2  1028.0  0.00  0.00   0.032   0.000   21.9    48   10.4   21.1   8.88  .0749    117    1    100.0    5 
22/03/19  23:25    9.2    9.2    9.1    87    7.1   2.0    SW   0.17   6.0    SW    9.2    9.2    9.2  1028.1  0.00  0.00   0.032   0.000   21.9    48   10.4   21.1   8.88  .0749    117    1    100.0    5 
22/03/19  23:30    9.2    9.2    9.2    87    7.1   3.0    SW   0.25   5.0    SW    8.9    9.2    8.9  1028.1  0.00  0.00   0.032   0.000   21.9    47   10.1   21.1   8.75  .0749    116    1    100.0    5 
22/03/19  23:35    9.2    9.2    9.2    87    7.1   3.0    SW   0.25   5.0    SW    8.9    9.2    8.9  1028.1  0.00  0.00   0.032   0.000   21.9    47   10.1   21.1   8.75  .0749    117    1    100.0    5 
22/03/19  23:40    9.2    9.2    9.2    87    7.1   3.0    SW   0.25   5.0    SW    8.9    9.2    8.9  1028.0  0.00  0.00   0.032   0.000   21.9    47   10.1   21.1   8.75  .0749    117    1    100.0    5 
22/03/19  23:45    9.2    9.2    9.2    87    7.1   3.0    SW   0.25   5.0    SW    8.9    9.2    8.9  1028.0  0.00  0.00   0.032   0.000   22.0    47   10.2   21.2   8.75  .0749    117    1    100.0    5 
22/03/19  23:50    9.2    9.2    9.2    87    7.1   2.0    SW   0.17   5.0    SW    9.2    9.2    9.2  1027.9  0.00  0.00   0.032   0.000   22.1    47   10.2   21.3   8.75  .0749    117    1    100.0    5 
22/03/19  23:55    9.2    9.2    9.2    87    7.1   2.0    SW   0.17   4.0    SW    9.2    9.2    9.2  1028.0  0.00  0.00   0.032   0.000   22.1    47   10.3   21.4   8.75  .0748    116    1    100.0    5 
23/03/19  00:00    9.2    9.2    9.2    87    7.1   1.0    SW   0.08   2.0    SW    9.2    9.2    9.2  1028.1  0.00  0.00   0.032   0.000   22.2    47   10.4   21.6   8.75  .0748    114    1    100.0    5 
23/03/19   0:05    9.2    9.2    9.2    87    7.1   0.0    SW   0.00   2.0    SW    9.2    9.2    9.2  1028.0  0.00  0.00   0.032   0.000   22.3    47   10.4   21.6   8.75  .0748    115    1    100.0    5 
23/03/19   0:10    9.2    9.2    9.2    87    7.1   0.0    SW   0.00   1.0    SW    9.2    9.2    9.2  1027.9  0.00  0.00   0.032   0.000   22.4    47   10.5   21.8   8.75  .0747    117    1    100.0    5 
23/03/19   0:15    9.2    9.2    9.2    87    7.2   0.0    SW   0.00   2.0    SW    9.2    9.3    9.3  1028.0  0.00  0.00   0.032   0.000   22.5    47   10.6   21.9   8.75  .0747    116    1    100.0    5 
23/03/19   0:20    9.2    9.2    9.2    87    7.2   0.0    SW   0.00   1.0    SW    9.2    9.3    9.3  1028.0  0.00  0.00   0.032   0.000   22.7    47   10.8   22.2   8.75  .0747    117    1    100.0    5 
23/03/19   0:25    9.3    9.3    9.2    87    7.2   0.0   ---   0.00   0.0   ---    9.3    9.4    9.4  1028.1  0.00  0.00   0.031   0.000   22.7    47   10.8   22.3   8.75  .0747    116    1    100.0    5 
23/03/19   0:30    9.3    9.3    9.2    87    7.2   0.0    SW   0.00   1.0    SW    9.3    9.4    9.4  1027.9  0.00  0.00   0.031   0.000   22.8    47   10.9   22.4   8.75  .0746    117    1    100.0    5 
23/03/19   0:35    9.3    9.3    9.2    87    7.2   0.0    SW   0.00   1.0    SW    9.3    9.4    9.4  1028.0  0.00  0.00   0.031   0.000   22.9    47   11.0   22.5   8.75  .0746    116    1    100.0    5 
23/03/19   0:40    9.2    9.3    9.2    87    7.2   0.0   ---   0.00   0.0   ---    9.2    9.3    9.3  1028.0  0.00  0.00   0.032   0.000   22.9    47   11.0   22.6   8.75  .0746    116    1    100.0    5 
23/03/19   0:45    9.2    9.3    9.2    87    7.2   0.0   ---   0.00   0.0   ---    9.2    9.3    9.3  1028.1  0.00  0.00   0.032   0.000   23.0    47   11.1   22.7   8.75  .0746    117    1    100.0    5 
23/03/19   0:50    9.2    9.2    9.2    87    7.2   0.0   ---   0.00   0.0   ---    9.2    9.3    9.3  1028.1  0.00  0.00   0.032   0.000   23.1    47   11.1   22.7   8.75  .0746    118    1    100.0    5 
23/03/19   0:55    9.2    9.2    9.2    87    7.2   0.0    SW   0.00   2.0    SW    9.2    9.3    9.3  1028.2  0.00  0.00   0.032   0.000   23.1    47   11.2   22.8   8.75  .0745    117    1    100.0    5 
23/03/19   1:00    9.2    9.2    9.2    87    7.2   1.0    SW   0.08   3.0    SW    9.2    9.3    9.3  1028.2  0.00  0.00   0.032   0.000   23.2    46   10.9   22.8   8.58  .0745    117    1    100.0    5 
23/03/19   1:05    9.2    9.2    9.2    87    7.2   1.0    SW   0.08   2.0    SW    9.2    9.3    9.3  1028.2  0.00  0.00   0.032   0.000   23.2    46   11.0   22.9   8.57  .0745    116    1    100.0    5 
23/03/19   1:10    9.2    9.2    9.2    87    7.1   0.0    SW   0.00   2.0    SW    9.2    9.2    9.2  1028.1  0.00  0.00   0.032   0.000   23.3    46   11.0   22.9   8.57  .0745    117    1    100.0    5 
23/03/19   1:15    9.2    9.2    9.2    87    7.1   0.0    SW   0.00   1.0    SW    9.2    9.2    9.2  1028.2  0.00  0.00   0.032   0.000   23.3    46   11.0   22.9   8.57  .0745    116    1    100.0    5 
23/03/19   1:20    9.2    9.2    9.2    87    7.2   0.0   ---   0.00   0.0   ---    9.2    9.3    9.3  1028.2  0.00  0.00   0.032   0.000   23.3    46   11.1   23.1   8.57  .0745    116    1    100.0    5 
23/03/19   1:25    9.2    9.2    9.2    87    7.2   0.0    SW   0.00   1.0    SW    9.2    9.3    9.3  1028.1  0.00  0.00   0.032   0.000   23.4    46   11.1   23.1   8.57  .0745    117    1    100.0    5 
23/03/19   1:30    9.2    9.2    9.2    87    7.1   0.0   ---   0.00   0.0   ---    9.2    9.2    9.2  1028.1  0.00  0.00   0.032   0.000   23.4    46   11.2   23.2   8.57  .0745    117    1    100.0    5 
23/03/19   1:35    9.2    9.2    9.2    87    7.1   0.0   ---   0.00   0.0   ---    9.2    9.2    9.2  1028.1  0.00  0.00   0.032   0.000   23.5    46   11.2   23.3   8.56  .0744    117    1    100.0    5 
23/03/19   1:40    9.2    9.2    9.2    87    7.2   0.0   ---   0.00   0.0   ---    9.2    9.3    9.3  1028.1  0.00  0.00   0.032   0.000   23.5    45   10.9   23.2   8.45  .0745    117    1    100.0    5 
23/03/19   1:45    9.2    9.2    9.2    87    7.2   0.0    SW   0.00   1.0    SW    9.2    9.3    9.3  1028.1  0.00  0.00   0.032   0.000   23.6    45   10.9   23.3   8.45  .0744    117    1    100.0    5 
23/03/19   1:50    9.2    9.2    9.2    87    7.2   0.0   ---   0.00   0.0   ---    9.2    9.3    9.3  1028.0  0.00  0.00   0.032   0.000   23.6    45   11.0   23.4   8.45  .0744    117    1    100.0    5 
23/03/19   1:55    9.2    9.3    9.2    87    7.2   0.0   ---   0.00   0.0   ---    9.2    9.3    9.3  1028.1  0.00  0.00   0.032   0.000   23.6    45   11.0   23.4   8.45  .0744    118    1    100.0    5 
23/03/19   2:00    9.2    9.3    9.2    87    7.2   0.0   ---   0.00   0.0   ---    9.2    9.3    9.3  1028.0  0.00  0.00   0.032   0.000   23.7    45   11.0   23.4   8.45  .0744    117    1    100.0    5 
23/03/19   2:05    9.2    9.2    9.2    87    7.2   0.0    SW   0.00   1.0    SW    9.2    9.3    9.3  1028.0  0.00  0.00   0.032   0.000   23.7    45   11.0   23.4   8.45  .0744    117    1    100.0    5 
23/03/19   2:10    9.2    9.2    9.2    87    7.2   0.0   ---   0.00   0.0   ---    9.2    9.3    9.3  1028.1  0.00  0.00   0.032   0.000   23.7    45   11.0   23.4   8.45  .0744    116    1    100.0    5 
23/03/19   2:15    9.2    9.2    9.2    87    7.1   0.0   ---   0.00   0.0   ---    9.2    9.2    9.2  1028.0  0.00  0.00   0.032   0.000   23.7    45   11.1   23.5   8.45  .0744    116    1    100.0    5 
23/03/19   2:20    9.2    9.2    9.2    87    7.1   0.0   ---   0.00   0.0   ---    9.2    9.2    9.2  1028.1  0.00  0.00   0.032   0.000   23.7    45   11.1   23.5   8.45  .0744    117    1    100.0    5 
23/03/19   2:25    9.1    9.2    9.1    87    7.1   0.0   ---   0.00   0.0   ---    9.1    9.2    9.2  1028.2  0.00  0.00   0.032   0.000   23.8    45   11.1   23.6   8.45  .0744    117    1    100.0    5 
23/03/19   2:30    9.1    9.1    9.1    87    7.0   0.0   ---   0.00   0.0   ---    9.1    9.1    9.1  1028.2  0.00  0.00   0.032   0.000   23.8    45   11.1   23.6   8.45  .0744    117    1    100.0    5 
23/03/19   2:35    9.0    9.1    9.0    87    7.0   0.0   ---   0.00   0.0   ---    9.0    9.1    9.1  1028.3  0.00  0.00   0.032   0.000   23.8    45   11.2   23.7   8.45  .0744    116    1    100.0    5 
23/03/19   2:40    8.9    9.0    8.9    87    6.9   0.0   ---   0.00   0.0   ---    8.9    9.0    9.0  1028.2  0.00  0.00   0.033   0.000   23.9    45   11.2   23.7   8.45  .0743    117    1    100.0    5 
23/03/19   2:45    8.9    9.0    8.9    87    6.9   0.0   ---   0.00   0.0   ---    8.9    9.0    9.0  1028.2  0.00  0.00   0.033   0.000   23.9    45   11.3   23.8   8.45  .0743    117    1    100.0    5 
23/03/19   2:50    8.9    8.9    8.9    87    6.8   0.0   ---   0.00   0.0   ---    8.9    8.9    8.9  1028.2  0.00  0.00   0.033   0.000   23.9    44   10.9   23.7   8.25  .0743    117    1    100.0    5 
23/03/19   2:55    8.8    8.9    8.8    87    6.8   0.0   ---   0.00   0.0   ---    8.8    8.9    8.9  1028.1  0.00  0.00   0.033   0.000   24.0    44   11.0   23.8   8.25  .0743    117    1    100.0    5 
23/03/19   3:00    8.8    8.8    8.8    87    6.7   0.0   ---   0.00   0.0   ---    8.8    8.8    8.8  1028.2  0.00  0.00   0.033   0.000   24.1    44   11.0   23.8   8.24  .0743    117    1    100.0    5 
23/03/19   3:05    8.7    8.8    8.7    87    6.7   0.0   ---   0.00   0.0   ---    8.7    8.8    8.8  1028.2  0.00  0.00   0.033   0.000   24.1    44   11.0   23.8   8.24  .0743    117    1    100.0    5 
23/03/19   3:10    8.7    8.8    8.7    87    6.6   0.0   ---   0.00   0.0   ---    8.7    8.7    8.7  1028.2  0.00  0.00   0.034   0.000   24.1    44   11.0   23.8   8.24  .0743    117    1    100.0    5 
23/03/19   3:15    8.7    8.7    8.6    87    6.6   0.0   ---   0.00   0.0   ---    8.7    8.7    8.7  1028.3  0.00  0.00   0.034   0.000   24.1    44   11.0   23.8   8.24  .0743    117    1    100.0    5 
23/03/19   3:20    8.6    8.7    8.6    87    6.6   0.0   ---   0.00   0.0   ---    8.6    8.7    8.7  1028.3  0.00  0.00   0.034   0.000   24.1    43   10.7   23.8   8.05  .0743    117    1    100.0    5 
23/03/19   3:25    8.6    8.6    8.6    87    6.6   0.0   ---   0.00   0.0   ---    8.6    8.7    8.7  1028.3  0.00  0.00   0.034   0.000   24.1    43   10.7   23.8   8.05  .0743    116    1    100.0    5 
23/03/19   3:30    8.7    8.7    8.6    87    6.6   0.0   ---   0.00   0.0   ---    8.7    8.7    8.7  1028.3  0.00  0.00   0.034   0.000   24.1    43   10.7   23.8   8.05  .0743    117    1    100.0    5 
23/03/19   3:35    8.7    8.7    8.7    87    6.6   0.0   ---   0.00   0.0   ---    8.7    8.7    8.7  1028.3  0.00  0.00   0.034   0.000   24.2    43   10.8   23.8   8.05  .0743    117    1    100.0    5 
23/03/19   3:40    8.7    8.7    8.6    87    6.6   0.0   ---   0.00   0.0   ---    8.7    8.7    8.7  1028.4  0.00  0.00   0.034   0.000   24.2    43   10.8   23.8   8.05  .0743    117    1    100.0    5 
23/03/19   3:45    8.7    8.7    8.7    87    6.7   0.0   ---   0.00   0.0   ---    8.7    8.8    8.8  1028.4  0.00  0.00   0.033   0.000   24.2    43   10.8   23.8   8.05  .0743    115    1    100.0    5 
23/03/19   3:50    8.7    8.7    8.7    87    6.7   0.0   ---   0.00   0.0   ---    8.7    8.8    8.8  1028.4  0.00  0.00   0.033   0.000   24.2    43   10.8   23.9   8.05  .0743    117    1    100.0    5 
23/03/19   3:55    8.7    8.7    8.7    87    6.7   0.0   ---   0.00   0.0   ---    8.7    8.8    8.8  1028.5  0.00  0.00   0.033   0.000   24.3    43   10.9   23.9   8.05  .0743    117    1    100.0    5 
23/03/19   4:00    8.8    8.8    8.7    87    6.7   0.0   ---   0.00   0.0   ---    8.8    8.8    8.8  1028.6  0.00  0.00   0.033   0.000   24.4    43   11.0   24.1   8.05  .0743    116    1    100.0    5 
23/03/19   4:05    8.7    8.7    8.7    87    6.7   0.0   ---   0.00   0.0   ---    8.7    8.8    8.8  1028.6  0.00  0.00   0.033   0.000   24.4    43   11.0   24.1   8.05  .0743    117    1    100.0    5 
23/03/19   4:10    8.7    8.7    8.7    87    6.7   0.0   ---   0.00   0.0   ---    8.7    8.8    8.8  1028.6  0.00  0.00   0.033   0.000   24.4    43   11.0   24.1   8.05  .0742    117    1    100.0    5 
23/03/19   4:15    8.7    8.7    8.7    87    6.7   0.0   ---   0.00   0.0   ---    8.7    8.8    8.8  1028.6  0.00  0.00   0.033   0.000   24.4    43   11.0   24.1   8.05  .0742    117    1    100.0    5 
23/03/19   4:20    8.7    8.7    8.7    87    6.7   0.0   ---   0.00   0.0   ---    8.7    8.8    8.8  1028.6  0.00  0.00   0.033   0.000   24.4    43   11.0   24.1   8.05  .0742    115    1    100.0    5 
23/03/19   4:25    8.7    8.7    8.7    87    6.7   0.0   ---   0.00   0.0   ---    8.7    8.8    8.8  1028.6  0.00  0.00   0.033   0.000   24.4    42   10.6   24.0   7.93  .0743    117    1    100.0    5 
23/03/19   4:30    8.7    8.7    8.7    87    6.7   0.0   ---   0.00   0.0   ---    8.7    8.8    8.8  1028.5  0.00  0.00   0.033   0.000   24.4    42   10.6   24.0   7.93  .0743    116    1    100.0    5 
23/03/19   4:35    8.7    8.7    8.7    87    6.7   0.0   ---   0.00   0.0   ---    8.7    8.8    8.8  1028.6  0.00  0.00   0.033   0.000   24.4    42   10.6   24.0   7.93  .0743    117    1    100.0    5 
23/03/19   4:40    8.7    8.7    8.7    87    6.7   0.0   ---   0.00   0.0   ---    8.7    8.8    8.8  1028.4  0.00  0.00   0.033   0.000   24.4    42   10.6   24.0   7.93  .0743    117    1    100.0    5 
23/03/19   4:45    8.7    8.7    8.7    87    6.7   0.0   ---   0.00   0.0   ---    8.7    8.8    8.8  1028.5  0.00  0.00   0.033   0.000   24.4    42   10.7   24.1   7.93  .0743    117    1    100.0    5 
23/03/19   4:50    8.7    8.8    8.7    87    6.7   0.0   ---   0.00   0.0   ---    8.7    8.8    8.8  1028.6  0.00  0.00   0.033   0.000   24.4    42   10.7   24.1   7.93  .0743    115    1    100.0    5 
23/03/19   4:55    8.7    8.8    8.7    87    6.7   0.0   ---   0.00   0.0   ---    8.7    8.8    8.8  1028.6  0.00  0.00   0.033   0.000   24.4    42   10.7   24.1   7.93  .0743    116    1    100.0    5 
23/03/19   5:00    8.7    8.8    8.7    87    6.7   0.0   ---   0.00   0.0   ---    8.7    8.8    8.8  1028.7  0.00  0.00   0.033   0.000   24.4    42   10.7   24.1   7.93  .0743    117    1    100.0    5 
23/03/19   5:05    8.8    8.8    8.7    87    6.7   0.0   ---   0.00   0.0   ---    8.8    8.8    8.8  1028.7  0.00  0.00   0.033   0.000   24.5    42   10.7   24.1   7.93  .0743    117    1    100.0    5 
23/03/19   5:10    8.8    8.8    8.7    87    6.7   0.0   ---   0.00   0.0   ---    8.8    8.8    8.8  1028.7  0.00  0.00   0.033   0.000   24.5    42   10.7   24.1   7.93  .0743    117    1    100.0    5 
23/03/19   5:15    8.8    8.8    8.7    87    6.7   0.0   ---   0.00   0.0   ---    8.8    8.8    8.8  1028.7  0.00  0.00   0.033   0.000   24.6    42   10.8   24.2   7.93  .0742    117    1    100.0    5 
23/03/19   5:20    8.8    8.8    8.8    87    6.7   0.0   ---   0.00   0.0   ---    8.8    8.8    8.8  1028.8  0.00  0.00   0.033   0.000   24.6    42   10.8   24.2   7.93  .0742    117    1    100.0    5 
23/03/19   5:25    8.8    8.8    8.8    87    6.7   0.0   ---   0.00   0.0   ---    8.8    8.8    8.8  1028.8  0.00  0.00   0.033   0.000   24.6    42   10.8   24.2   7.92  .0742    117    1    100.0    5 
23/03/19   5:30    8.8    8.8    8.8    87    6.8   0.0   ---   0.00   0.0   ---    8.8    8.9    8.9  1028.9  0.00  0.00   0.033   0.000   24.6    42   10.8   24.2   7.92  .0742    117    1    100.0    5 
23/03/19   5:35    8.8    8.8    8.8    87    6.8   0.0   ---   0.00   0.0   ---    8.8    8.9    8.9  1028.9  0.00  0.00   0.033   0.000   24.6    42   10.8   24.2   7.92  .0742    117    1    100.0    5 
23/03/19   5:40    8.8    8.8    8.8    87    6.8   0.0   ---   0.00   0.0   ---    8.8    8.9    8.9  1029.0  0.00  0.00   0.033   0.000   24.7    42   10.9   24.3   7.92  .0742    117    1    100.0    5 
23/03/19   5:45    8.8    8.9    8.8    87    6.8   0.0   ---   0.00   0.0   ---    8.8    8.9    8.9  1028.9  0.00  0.00   0.033   0.000   24.7    41   10.5   24.2   7.75  .0742    117    1    100.0    5 
23/03/19   5:50    8.9    8.9    8.8    87    6.8   0.0   ---   0.00   0.0   ---    8.9    8.9    8.9  1028.9  0.00  0.00   0.033   0.000   24.7    41   10.5   24.2   7.75  .0742    117    1    100.0    5 
23/03/19   5:55    8.9    8.9    8.8    87    6.8   0.0   ---   0.00   0.0   ---    8.9    8.9    8.9  1029.0  0.00  0.00   0.033   0.000   24.7    41   10.5   24.2   7.75  .0742    117    1    100.0    5 
23/03/19   6:00    8.9    8.9    8.9    87    6.8   0.0   ---   0.00   0.0   ---    8.9    8.9    8.9  1029.0  0.00  0.00   0.033   0.000   24.7    42   10.9   24.3   7.92  .0742    117    1    100.0    5 
23/03/19   6:05    8.9    8.9    8.9    87    6.9   0.0   ---   0.00   0.0   ---    8.9    9.0    9.0  1029.0  0.00  0.00   0.033   0.000   24.7    42   10.9   24.3   7.92  .0742    117    1    100.0    5 
23/03/19   6:10    8.9    8.9    8.9    87    6.9   0.0   ---   0.00   0.0   ---    8.9    9.0    9.0  1029.1  0.00  0.00   0.033   0.000   24.7    42   10.9   24.3   7.92  .0742    118    1    100.0    5 
23/03/19   6:15    8.9    8.9    8.9    87    6.9   0.0   ---   0.00   0.0   ---    8.9    9.0    9.0  1029.2  0.00  0.00   0.033   0.000   24.7    42   10.9   24.3   7.92  .0742    117    1    100.0    5 
23/03/19   6:20    8.9    8.9    8.9    87    6.9   0.0   ---   0.00   0.0   ---    8.9    9.0    9.0  1029.1  0.00  0.00   0.033   0.000   24.7    42   10.9   24.3   7.92  .0742    117    1    100.0    5 
23/03/19   6:25    8.9    9.0    8.9    87    6.9   0.0    SW   0.00   2.0    SW    8.9    9.0    9.0  1029.2  0.00  0.00   0.033   0.000   24.7    42   10.9   24.3   7.92  .0742    116    1    100.0    5 
23/03/19   6:30    9.0    9.0    8.9    87    7.0   0.0    SW   0.00   1.0    SW    9.0    9.1    9.1  1029.2  0.00  0.00   0.032   0.000   24.8    42   11.0   24.4   7.92  .0742    116    1    100.0    5 
23/03/19   6:35    9.0    9.0    9.0    87    7.0   0.0    SW   0.00   2.0    SW    9.0    9.1    9.1  1029.3  0.00  0.00   0.032   0.000   24.8    42   11.0   24.4   7.92  .0742    116    1    100.0    5 
23/03/19   6:40    9.1    9.1    9.0    87    7.0   0.0    SW   0.00   2.0    SW    9.1    9.1    9.1  1029.4  0.00  0.00   0.032   0.000   24.8    42   11.0   24.4   7.92  .0742    117    1    100.0    5 
23/03/19   6:45    9.1    9.1    9.1    87    7.0   0.0    SW   0.00   2.0    SW    9.1    9.1    9.1  1029.4  0.00  0.00   0.032   0.000   24.8    41   10.7   24.4   7.75  .0742    117    1    100.0    5 
23/03/19   6:50    9.1    9.1    9.1    87    7.1   0.0   WSW   0.00   1.0   WSW    9.1    9.2    9.2  1029.4  0.00  0.00   0.032   0.000   24.8    41   10.7   24.4   7.75  .0742    117    1    100.0    5 
23/03/19   6:55    9.1    9.1    9.1    87    7.1   0.0   WSW   0.00   2.0   WSW    9.1    9.2    9.2  1029.5  0.00  0.00   0.032   0.000   24.8    41   10.7   24.4   7.75  .0742    117    1    100.0    5 
23/03/19   7:00    9.2    9.2    9.1    87    7.1   0.0   WSW   0.00   1.0   WSW    9.2    9.2    9.2  1029.4  0.00  0.00   0.032   0.000   24.8    42   11.0   24.4   7.92  .0742    117    1    100.0    5 
23/03/19   7:05    9.2    9.2    9.2    87    7.1   0.0   WSW   0.00   1.0   WSW    9.2    9.2    9.2  1029.5  0.00  0.00   0.032   0.000   24.8    41   10.7   24.4   7.75  .0742    117    1    100.0    5 
23/03/19   7:10    9.2    9.2    9.2    87    7.2   0.0   WSW   0.00   1.0   WSW    9.2    9.3    9.3  1029.5  0.00  0.00   0.032   0.000   24.8    41   10.6   24.3   7.75  .0743    116    1    100.0    5 
23/03/19   7:15    9.2    9.2    9.2    87    7.2   0.0   WSW   0.00   2.0   WSW    9.2    9.3    9.3  1029.6  0.00  0.00   0.032   0.000   24.8    41   10.6   24.3   7.75  .0743    117    1    100.0    5 
23/03/19   7:20    9.2    9.2    9.2    87    7.2   0.0   WSW   0.00   3.0   WSW    9.2    9.3    9.3  1029.6  0.00  0.00   0.032   0.000   24.8    41   10.7   24.4   7.75  .0742    117    1    100.0    5 
23/03/19   7:25    9.3    9.3    9.2    87    7.2   0.0   WSW   0.00   1.0   WSW    9.3    9.4    9.4  1029.6  0.00  0.00   0.031   0.000   24.8    41   10.6   24.3   7.75  .0743    115    1    100.0    5 
23/03/19   7:30    9.3    9.3    9.3    87    7.2   1.0   WSW   0.08   6.0   WSW    9.3    9.4    9.4  1029.7  0.00  0.00   0.031   0.000   24.8    41   10.7   24.4   7.75  .0743    116    1    100.0    5 
23/03/19   7:35    9.3    9.3    9.3    87    7.2   1.0   WSW   0.08   4.0   WSW    9.3    9.4    9.4  1029.7  0.00  0.00   0.031   0.000   24.8    41   10.7   24.4   7.75  .0743    117    1    100.0    5 
23/03/19   7:40    9.3    9.3    9.3    87    7.2   1.0   WSW   0.08   6.0   WSW    9.3    9.4    9.4  1029.7  0.00  0.00   0.031   0.000   24.8    41   10.6   24.3   7.75  .0743    117    1    100.0    5 
23/03/19   7:45    9.3    9.3    9.3    87    7.2   2.0     W   0.17   7.0     W    9.3    9.4    9.4  1029.7  0.00  0.00   0.031   0.000   24.8    41   10.7   24.4   7.75  .0743    115    1    100.0    5 
23/03/19   7:50    9.3    9.3    9.3    87    7.2   3.0     W   0.25   7.0     W    9.0    9.4    9.1  1029.7  0.00  0.00   0.031   0.000   24.8    41   10.7   24.4   7.75  .0743    116    1    100.0    5 
23/03/19   7:55    9.3    9.3    9.3    87    7.3   2.0     W   0.17   5.0     W    9.3    9.4    9.4  1029.7  0.00  0.00   0.031   0.000   24.8    42   11.0   24.4   7.92  .0742    117    1    100.0    5 
23/03/19   8:00    9.3    9.3    9.3    87    7.3   2.0     W   0.17   5.0     W    9.3    9.4    9.4  1029.8  0.00  0.00   0.031   0.000   24.9    42   11.1   24.5   7.91  .0742    117    1    100.0    5 
23/03/19   8:05    9.4    9.4    9.3    87    7.3   2.0     W   0.17   6.0     W    9.4    9.5    9.5  1029.9  0.00  0.00   0.031   0.000   24.9    42   11.1   24.5   7.91  .0742    117    1    100.0    5 
23/03/19   8:10    9.4    9.4    9.4    87    7.3   1.0     W   0.08   5.0     W    9.4    9.5    9.5  1029.9  0.00  0.00   0.031   0.000   24.9    42   11.1   24.5   7.91  .0742    116    1    100.0    5 
23/03/19   8:15    9.4    9.4    9.4    87    7.4   2.0     W   0.17   6.0     W    9.4    9.6    9.6  1029.9  0.00  0.00   0.031   0.000   24.9    42   11.1   24.5   7.91  .0742    116    1    100.0    5 
23/03/19   8:20    9.4    9.4    9.4    87    7.4   1.0     W   0.08   5.0     W    9.4    9.6    9.6  1030.0  0.00  0.00   0.031   0.000   24.9    42   11.1   24.5   7.91  .0742    115    1    100.0    5 
23/03/19   8:25    9.5    9.5    9.4    87    7.4   1.0   WNW   0.08   6.0   WNW    9.5    9.6    9.6  1029.9  0.00  0.00   0.031   0.000   24.9    41   10.7   24.4   7.75  .0743    116    1    100.0    5 
23/03/19   8:30    9.6    9.6    9.5    87    7.5   0.0   WNW   0.00   2.0   WNW    9.6    9.7    9.7  1030.0  0.00  0.00   0.030   0.000   24.9    41   10.7   24.4   7.75  .0743    117    1    100.0    5 
23/03/19   8:35    9.6    9.6    9.5    87    7.5   3.0   WNW   0.25   7.0   WNW    9.3    9.7    9.4  1030.0  0.00  0.00   0.030   0.000   24.9    41   10.7   24.4   7.75  .0743    117    1    100.0    5 
23/03/19   8:40    9.7    9.7    9.6    87    7.6   3.0    NW   0.25   7.0    NW    9.4    9.8    9.6  1030.0  0.00  0.00   0.030   0.000   24.8    41   10.7   24.4   7.75  .0743    116    1    100.0    5 
23/03/19   8:45    9.7    9.7    9.7    87    7.7   2.0   NNW   0.17   7.0    NW    9.7    9.8    9.8  1030.1  0.00  0.00   0.030   0.000   24.8    41   10.7   24.4   7.75  .0743    117    1    100.0    5 
23/03/19   8:50    9.8    9.8    9.7    87    7.7   3.0   NNW   0.25   7.0   NNW    9.6    9.9    9.7  1030.1  0.00  0.00   0.030   0.000   24.8    42   11.0   24.4   7.92  .0743    116    1    100.0    5 
23/03/19   8:55    9.8    9.8    9.7    87    7.8   2.0   NNW   0.17   7.0   NNW    9.8    9.9    9.9  1030.1  0.00  0.00   0.030   0.000   24.8    42   11.0   24.4   7.92  .0743    117    1    100.0    5 
23/03/19   9:00    9.9    9.9    9.8    87    7.8   5.0     N   0.42  11.0     N    8.9   10.0    9.0  1030.2  0.00  0.00   0.029   0.000   24.9    42   11.1   24.5   7.91  .0742    117    1    100.0    5 
23/03/19   9:05    9.9    9.9    9.9    87    7.8   8.0   NNE   0.67  13.0   NNE    7.9   10.0    8.1  1030.2  0.00  0.00   0.029   0.000   24.9    42   11.1   24.6   7.91  .0742    115    1    100.0    5 
23/03/19   9:10    9.9   10.0    9.9    87    7.9   6.0   NNE   0.50  10.0   NNE    8.7   10.1    8.8  1030.2  0.00  0.00   0.029   0.000   24.9    42   11.1   24.6   7.91  .0742    117    1    100.0    5 
23/03/19   9:15   10.1   10.1    9.9    87    8.0   5.0   NNE   0.42   9.0   NNE    9.1   10.2    9.2  1030.3  0.00  0.00   0.029   0.000   25.0    42   11.2   24.6   7.91  .0742    117    1    100.0    5 
23/03/19   9:20   10.1   10.1   10.1    87    8.0   5.0   NNE   0.42  11.0   NNE    9.1   10.2    9.2  1030.2  0.00  0.00   0.029   0.000   25.0    42   11.2   24.6   7.91  .0742    117    1    100.0    5 
23/03/19   9:25   10.3   10.3   10.1    87    8.2   5.0   NNE   0.42   9.0   NNE    9.3   10.3    9.4  1030.3  0.00  0.00   0.028   0.000   25.1    42   11.2   24.7   7.91  .0742    117    1    100.0    5 
23/03/19   9:30   10.4   10.4   10.3    87    8.4   4.0   NNE   0.33  10.0   NNE    9.9   10.5    9.9  1030.3  0.00  0.00   0.027   0.000   25.1    42   11.2   24.7   7.91  .0742    117    1    100.0    5 
23/03/19   9:35   10.6   10.6   10.4    87    8.5   3.0   NNE   0.25   8.0   NNE   10.4   10.6   10.5  1030.4  0.00  0.00   0.027   0.000   25.1    42   11.2   24.7   7.91  .0742    117    1    100.0    5 
23/03/19   9:40   10.7   10.7   10.6    87    8.6   3.0   NNE   0.25   9.0   NNE   10.6   10.8   10.7  1030.4  0.00  0.00   0.026   0.000   25.1    42   11.3   24.7   7.91  .0742    117    1    100.0    5 
23/03/19   9:45   10.9   10.9   10.7    86    8.6   2.0   NNE   0.17   7.0   NNE   10.9   10.9   10.9  1030.5  0.00  0.00   0.026   0.000   25.1    41   10.9   24.7   7.75  .0742    116    1    100.0    5 
23/03/19   9:50   11.0   11.0   10.9    87    8.9   3.0   NNE   0.25   8.0    NE   10.9   11.1   11.0  1030.6  0.00  0.00   0.025   0.000   25.1    41   10.9   24.7   7.75  .0742    116    1    100.0    5 
23/03/19   9:55   11.2   11.2   11.1    86    9.0   2.0   NNE   0.17   7.0   NNE   11.2   11.2   11.2  1030.6  0.00  0.00   0.025   0.000   25.1    41   10.9   24.7   7.75  .0742    116    1    100.0    5 
23/03/19  10:00   11.4   11.4   11.2    86    9.2   4.0   NNE   0.33   8.0   NNE   11.1   11.4   11.1  1030.6  0.00  0.00   0.024   0.000   25.1    41   10.9   24.7   7.75  .0742    117    1    100.0    5 
23/03/19  10:05   11.7   11.7   11.4    86    9.4   2.0   NNE   0.17   5.0   NNE   11.7   11.6   11.6  1030.6  0.00  0.00   0.023   0.000   25.1    41   10.9   24.7   7.75  .0742    116    1    100.0    5 
23/03/19  10:10   11.8   11.8   11.7    86    9.6   4.0   NNE   0.33   9.0   NNE   11.5   11.8   11.4  1030.7  0.00  0.00   0.023   0.000   25.1    41   10.9   24.7   7.75  .0742    117    1    100.0    5 
23/03/19  10:15   11.9   11.9   11.8    86    9.6   5.0   NNE   0.42  11.0   NNE   11.2   11.8   11.2  1030.7  0.00  0.00   0.022   0.000   25.1    41   10.9   24.7   7.75  .0742    117    1    100.0    5 
23/03/19  10:20   11.9   11.9   11.8    85    9.4   4.0   NNE   0.33  10.0   NNE   11.6   11.8   11.5  1030.8  0.00  0.00   0.022   0.000   25.1    41   10.9   24.7   7.75  .0742    117    1    100.0    5 
23/03/19  10:25   12.0   12.0   11.9    86    9.7   4.0   NNE   0.33  10.0     N   11.7   11.9   11.6  1030.7  0.00  0.00   0.022   0.000   25.2    41   11.0   24.7   7.75  .0742    117    1    100.0    5 
23/03/19  10:30   12.1   12.1   12.0    85    9.6   6.0   NNE   0.50  10.0   NNE   11.1   12.0   11.1  1030.7  0.00  0.00   0.022   0.000   25.2    41   11.0   24.8   7.75  .0742    117    1    100.0    5 
23/03/19  10:35   12.1   12.1   12.1    85    9.6   5.0   NNE   0.42   9.0   NNE   11.4   12.0   11.3  1030.6  0.00  0.00   0.022   0.000   25.2    42   11.4   24.8   7.90  .0742    117    1    100.0    5 
23/03/19  10:40   12.1   12.1   12.1    85    9.7   5.0   NNE   0.42  11.0   NNE   11.5   12.1   11.4  1030.6  0.00  0.00   0.022   0.000   25.3    42   11.4   24.9   7.90  .0742    117    1    100.0    5 
23/03/19  10:45   12.2   12.2   12.1    84    9.5   7.0     N   0.58  11.0   NNE   11.1   12.1   11.0  1030.5  0.00  0.00   0.021   0.000   25.3    42   11.5   24.9   7.90  .0741    117    1    100.0    5 
23/03/19  10:50   12.2   12.2   12.2    85    9.8   6.0   NNE   0.50  10.0   NNE   11.3   12.2   11.3  1030.6  0.00  0.00   0.021   0.000   25.4    41   11.2   24.9   7.75  .0741    117    1    100.0    5 
23/03/19  10:55   12.3   12.3   12.2    84    9.7   5.0   NNE   0.42   8.0   NNE   11.7   12.2   11.6  1030.6  0.00  0.00   0.021   0.000   25.4    41   11.2   24.9   7.75  .0742    117    1    100.0    5 
23/03/19  11:00   12.4   12.4   12.3    84    9.8   6.0     N   0.50  11.0     N   11.6   12.3   11.5  1030.6  0.00  0.00   0.021   0.000   25.4    41   11.2   24.9   7.75  .0742    116    1    100.0    5 
23/03/19  11:05   12.4   12.4   12.4    84    9.8   5.0     N   0.42   9.0     N   11.9   12.4   11.8  1030.6  0.00  0.00   0.020   0.000   25.4    41   11.2   24.9   7.75  .0742    117    1    100.0    5 
23/03/19  11:10   12.6   12.6   12.5    84   10.0   6.0     N   0.50  10.0     N   11.8   12.6   11.7  1030.7  0.00  0.00   0.020   0.000   25.4    41   11.2   25.0   7.75  .0741    116    1    100.0    5 
23/03/19  11:15   12.7   12.7   12.6    83    9.9   7.0   NNE   0.58  12.0   NNE   11.7   12.6   11.6  1030.7  0.00  0.00   0.019   0.000   25.4    42   11.5   25.0   7.90  .0741    117    1    100.0    5 
23/03/19  11:20   12.7   12.7   12.7    83    9.9   8.0   NNE   0.67  13.0   NNE   11.3   12.6   11.2  1030.7  0.00  0.00   0.020   0.000   25.4    42   11.6   25.1   7.89  .0741    117    1    100.0    5 
23/03/19  11:25   12.7   12.7   12.7    82    9.7   7.0   NNE   0.58  14.0   NNE   11.7   12.6   11.6  1030.6  0.00  0.00   0.020   0.000   25.4    41   11.2   25.0   7.75  .0741    115    1    100.0    5 
23/03/19  11:30   12.5   12.6   12.5    82    9.5   8.0   NNE   0.67  14.0     N   11.1   12.4   10.9  1030.7  0.00  0.00   0.020   0.000   25.4    41   11.2   25.0   7.75  .0741    117    1    100.0    5 
23/03/19  11:35   12.4   12.5   12.4    82    9.4   9.0   NNE   0.75  14.0     N   10.6   12.3   10.4  1030.7  0.00  0.00   0.021   0.000   25.4    41   11.2   25.0   7.75  .0741    116    1    100.0    5 
23/03/19  11:40   12.3   12.4   12.3    82    9.3   8.0   NNE   0.67  15.0   NNE   10.8   12.2   10.7  1030.7  0.00  0.00   0.021   0.000   25.4    41   11.2   25.0   7.75  .0741    115    1    100.0    5 
23/03/19  11:45   12.2   12.3   12.2    82    9.2   8.0   NNE   0.67  14.0   NNE   10.7   12.1   10.6  1030.8  0.00  0.00   0.021   0.000   25.4    41   11.2   25.0   7.75  .0741    117    1    100.0    5 
23/03/19  11:50   12.1   12.2   12.1    82    9.1  10.0   NNE   0.83  16.0   NNE    9.9   12.0    9.8  1030.8  0.00  0.00   0.022   0.000   25.4    41   11.2   25.0   7.75  .0741    117    1    100.0    5 
23/03/19  11:55   12.1   12.1   12.1    82    9.1   8.0     N   0.67  13.0     N   10.5   11.9   10.4  1030.8  0.00  0.00   0.022   0.000   25.5    41   11.3   25.1   7.75  .0741    116    1    100.0    5 
23/03/19  12:00   12.1   12.1   12.1    82    9.1   7.0   NNE   0.58  15.0     N   10.9   11.9   10.8  1030.8  0.00  0.00   0.022   0.000   25.5    42   11.6   25.1   7.89  .0741    116    1    100.0    5 
23/03/19  12:05   11.9   12.1   11.9    82    9.0   9.0     N   0.75  15.0     N   10.0   11.8    9.9  1030.8  0.00  0.00   0.022   0.000   25.6    42   11.7   25.2   7.89  .0741    117    1    100.0    5 
23/03/19  12:10   11.9   11.9   11.9    82    9.0   9.0   NNE   0.75  16.0   NNE   10.0   11.8    9.9  1030.8  0.00  0.00   0.022   0.000   25.6    42   11.7   25.2   7.89  .0741    117    1    100.0    5 
23/03/19  12:15   12.0   12.0   11.9    82    9.0   8.0   NNE   0.67  14.0   NNE   10.4   11.9   10.3  1030.9  0.00  0.00   0.022   0.000   25.7    42   11.8   25.3   7.89  .0741    117    1    100.0    5 
23/03/19  12:20   12.1   12.1   12.0    82    9.1   8.0   NNE   0.67  12.0   NNE   10.5   11.9   10.4  1030.8  0.00  0.00   0.022   0.000   25.7    41   11.4   25.2   7.75  .0741    117    1    100.0    5 
23/03/19  12:25   12.1   12.1   12.1    81    8.9   8.0   NNE   0.67  14.0   NNE   10.6   11.9   10.4  1030.8  0.00  0.00   0.022   0.000   25.7    41   11.5   25.3   7.75  .0741    117    1    100.0    5 
23/03/19  12:30   12.2   12.2   12.1    81    9.0   8.0   NNE   0.67  16.0   NNE   10.7   12.0   10.5  1030.8  0.00  0.00   0.021   0.000   25.7    41   11.5   25.3   7.75  .0741    117    1    100.0    5 
23/03/19  12:35   12.2   12.2   12.1    80    8.9   8.0   NNE   0.67  15.0   NNE   10.7   12.1   10.6  1030.9  0.00  0.00   0.021   0.000   25.7    41   11.5   25.3   7.75  .0741    117    1    100.0    5 
23/03/19  12:40   12.3   12.3   12.2    79    8.7   7.0   NNE   0.58  16.0   NNE   11.2   12.1   11.0  1030.9  0.00  0.00   0.021   0.000   25.7    41   11.5   25.3   7.75  .0741    117    1    100.0    5 
23/03/19  12:45   12.4   12.4   12.3    79    8.9   7.0   NNE   0.58  14.0   NNE   11.4   12.3   11.2  1030.9  0.00  0.00   0.020   0.000   25.7    41   11.5   25.3   7.75  .0741    115    1    100.0    5 
23/03/19  12:50   12.7   12.7   12.4    79    9.1   7.0   NNE   0.58  12.0   NNE   11.7   12.5   11.5  1030.8  0.00  0.00   0.020   0.000   25.7    41   11.5   25.3   7.75  .0741    117    1    100.0    5 
23/03/19  12:55   13.0   13.0   12.7    78    9.3   7.0    NE   0.58  14.0    NE   12.1   12.8   11.8  1030.9  0.00  0.00   0.019   0.000   25.7    41   11.5   25.3   7.75  .0741    117    1    100.0    5 
23/03/19  13:00   13.1   13.1   13.0    77    9.1   6.0   NNE   0.50  11.0   NNE   12.3   12.8   12.1  1030.8  0.00  0.00   0.018   0.000   25.8    41   11.5   25.3   7.75  .0740    116    1    100.0    5 
23/03/19  13:05   13.2   13.2   13.1    77    9.3   4.0    NE   0.33   9.0    NE   13.1   12.9   12.8  1030.8  0.00  0.00   0.018   0.000   25.8    41   11.5   25.3   7.75  .0740    117    1    100.0    5 
23/03/19  13:10   13.3   13.3   13.2    76    9.1   6.0   NNE   0.50  11.0   NNE   12.6   13.0   12.3  1030.7  0.00  0.00   0.018   0.000   25.8    40   11.2   25.3   7.58  .0741    117    1    100.0    5 
23/03/19  13:15   13.3   13.3   13.3    75    8.9   5.0   NNE   0.42  11.0   NNE   12.9   12.9   12.6  1030.7  0.00  0.00   0.018   0.000   25.8    40   11.2   25.3   7.58  .0741    117    1    100.0    5 
23/03/19  13:20   13.4   13.4   13.3    75    9.0   5.0   NNE   0.42  12.0    NE   13.0   13.1   12.7  1030.7  0.00  0.00   0.017   0.000   25.8    41   11.5   25.3   7.75  .0740    117    1    100.0    5 
23/03/19  13:25   13.3   13.4   13.3    75    9.0   7.0   NNE   0.58  13.0   NNE   12.4   13.0   12.1  1030.7  0.00  0.00   0.017   0.000   25.8    41   11.5   25.3   7.75  .0740    116    1    100.0    5 
23/03/19  13:30   13.3   13.3   13.3    75    9.0   4.0    NE   0.33  10.0    NE   13.2   13.0   12.9  1030.6  0.00  0.00   0.017   0.000   25.8    41   11.6   25.4   7.75  .0740    114    1    100.0    5 
23/03/19  13:35   13.4   13.4   13.3    75    9.1   4.0    NE   0.33  11.0    NE   13.3   13.1   13.0  1030.5  0.00  0.00   0.017   0.000   25.9    41   11.6   25.5   7.75  .0740    118    1    100.0    5 
23/03/19  13:40   13.5   13.5   13.4    74    9.0   4.0    NE   0.33   9.0    NE   13.4   13.2   13.1  1030.5  0.00  0.00   0.017   0.000   25.9    41   11.7   25.6   7.75  .0740    116    1    100.0    5 
23/03/19  13:45   13.5   13.5   13.5    74    9.0   4.0   NNE   0.33  11.0   NNE   13.4   13.2   13.1  1030.6  0.00  0.00   0.017   0.000   26.0    40   11.4   25.6   7.57  .0740    117    1    100.0    5 
23/03/19  13:50   13.4   13.6   13.4    74    8.9   6.0    NE   0.50  13.0   ENE   12.8   13.1   12.4  1030.6  0.00  0.00   0.017   0.000   26.0    40   11.4   25.6   7.57  .0740    116    1    100.0    5 
23/03/19  13:55   13.4   13.4   13.4    73    8.6   5.0    NE   0.42  11.0   NNE   13.0   13.0   12.6  1030.5  0.00  0.00   0.017   0.000   26.0    39   11.0   25.5   7.47  .0740    116    1    100.0    5 
23/03/19  14:00   13.4   13.4   13.3    74    8.8   5.0    NE   0.42  11.0    NE   13.0   13.1   12.7  1030.5  0.00  0.00   0.017   0.000   26.0    39   11.0   25.5   7.47  .0740    116    1    100.0    5 
23/03/19  14:05   13.3   13.4   13.3    73    8.5   7.0    NE   0.58  12.0    NE   12.4   12.9   12.0  1030.5  0.00  0.00   0.018   0.000   26.0    39   11.0   25.5   7.47  .0740    117    1    100.0    5 
23/03/19  14:10   13.3   13.3   13.3    74    8.7   4.0    NE   0.33   9.0    NE   13.2   12.9   12.8  1030.5  0.00  0.00   0.018   0.000   26.0    39   11.0   25.5   7.47  .0740    117    1    100.0    5 
23/03/19  14:15   13.3   13.3   13.3    74    8.8   6.0   ENE   0.50  12.0   ENE   12.7   13.0   12.3  1030.5  0.00  0.00   0.017   0.000   26.0    39   11.0   25.5   7.47  .0740    117    1    100.0    5 
23/03/19  14:20   13.4   13.4   13.3    75    9.0   5.0   ENE   0.42   9.0   ENE   13.0   13.1   12.7  1030.5  0.00  0.00   0.017   0.000   25.9    39   10.9   25.4   7.48  .0740    116    1    100.0    5 
23/03/19  14:25   13.4   13.4   13.4    75    9.1   4.0   ENE   0.33  11.0   ENE   13.3   13.1   13.0  1030.5  0.00  0.00   0.017   0.000   26.0    39   11.0   25.5   7.47  .0740    117    1    100.0    5 
23/03/19  14:30   13.6   13.6   13.4    75    9.2   2.0   ENE   0.17   9.0    NE   13.6   13.2   13.2  1030.5  0.00  0.00   0.017   0.000   25.9    39   10.9   25.4   7.48  .0740    115    1    100.0    5 
23/03/19  14:35   13.7   13.7   13.6    76    9.6   3.0   ENE   0.25   6.0   ENE   13.7   13.4   13.4  1030.5  0.00  0.00   0.016   0.000   25.9    39   10.9   25.4   7.48  .0740    117    1    100.0    5 
23/03/19  14:40   13.8   13.8   13.7    75    9.5   5.0   ENE   0.42   9.0   ENE   13.5   13.6   13.2  1030.5  0.00  0.00   0.016   0.000   25.9    39   10.9   25.4   7.48  .0740    118    1    100.0    5 
23/03/19  14:45   13.8   13.8   13.8    74    9.3   3.0   ENE   0.25   9.0     E   13.8   13.5   13.5  1030.5  0.00  0.00   0.016   0.000   25.9    39   10.9   25.4   7.48  .0740    117    1    100.0    5 
23/03/19  14:50   13.9   13.9   13.9    74    9.4   1.0   ENE   0.08   6.0   ENE   13.9   13.6   13.6  1030.4  0.00  0.00   0.015   0.000   25.9    39   10.9   25.4   7.48  .0740    116    1    100.0    5 
23/03/19  14:55   14.0   14.0   13.9    74    9.4   1.0     E   0.08   6.0   ENE   14.0   13.7   13.7  1030.4  0.00  0.00   0.015   0.000   25.9    40   11.3   25.4   7.58  .0740    116    1    100.0    5 
23/03/19  15:00   14.1   14.1   13.9    74    9.5   4.0     E   0.33   9.0   ENE   14.1   13.7   13.7  1030.3  0.00  0.00   0.015   0.000   25.9    40   11.3   25.4   7.58  .0740    115    1    100.0    5 
23/03/19  15:05   14.2   14.2   14.1    75    9.8   5.0     E   0.42   8.0     E   13.9   13.9   13.6  1030.4  0.00  0.00   0.014   0.000   25.9    40   11.3   25.5   7.58  .0740    117    1    100.0    5 
23/03/19  15:10   14.2   14.2   14.2    75    9.9   3.0     E   0.25   9.0     E   14.2   13.9   13.9  1030.4  0.00  0.00   0.014   0.000   25.9    40   11.3   25.5   7.58  .0740    117    1    100.0    5 
23/03/19  15:15   14.1   14.2   14.1    75    9.7   5.0   ESE   0.42   8.0   ESE   13.8   13.8   13.5  1030.4  0.00  0.00   0.015   0.000   26.0    40   11.4   25.6   7.57  .0740    117    1    100.0    5 
23/03/19  15:20   13.9   14.1   13.9    75    9.5   5.0   ESE   0.42   8.0   ESE   13.6   13.6   13.3  1030.4  0.00  0.00   0.015   0.000   26.1    40   11.4   25.6   7.57  .0740    115    1    100.0    5 
23/03/19  15:25   13.7   13.9   13.7    75    9.3   3.0   ESE   0.25   8.0   ESE   13.7   13.4   13.4  1030.5  0.00  0.00   0.016   0.000   26.1    40   11.4   25.6   7.57  .0740    117    1    100.0    5 
23/03/19  15:30   13.4   13.7   13.4    75    9.1   2.0   ESE   0.17   5.0   ESE   13.4   13.1   13.1  1030.5  0.00  0.00   0.017   0.000   26.1    40   11.5   25.7   7.57  .0739    117    1    100.0    5 
23/03/19  15:35   13.3   13.4   13.3    76    9.1   4.0   ESE   0.33   7.0   ESE   13.2   13.0   12.9  1030.6  0.00  0.00   0.018   0.000   26.1    40   11.4   25.6   7.57  .0740    117    1    100.0    5 
23/03/19  15:40   13.1   13.3   13.1    76    8.9   2.0   ESE   0.17   5.0   ESE   13.1   12.8   12.8  1030.5  0.00  0.00   0.018   0.000   26.1    40   11.4   25.6   7.57  .0740    117    1    100.0    5 
23/03/19  15:45   12.8   13.1   12.8    76    8.7   6.0   ESE   0.50   9.0   ESE   12.1   12.6   11.8  1030.5  0.00  0.00   0.019   0.000   26.1    40   11.4   25.6   7.57  .0740    118    1    100.0    5 
23/03/19  15:50   12.7   12.8   12.7    77    8.8   5.0   ESE   0.42   8.0   ESE   12.2   12.5   12.0  1030.4  0.00  0.00   0.019   0.000   26.1    40   11.4   25.6   7.57  .0740    115    1    100.0    5 
23/03/19  15:55   12.6   12.7   12.6    77    8.6   5.0   ESE   0.42   8.0   ESE   12.0   12.3   11.8  1030.4  0.00  0.00   0.020   0.000   26.0    39   11.0   25.5   7.47  .0740    117    1    100.0    5 
23/03/19  16:00   12.4   12.6   12.4    78    8.7   5.0   ESE   0.42   7.0   ESE   11.9   12.2   11.7  1030.5  0.00  0.00   0.020   0.000   26.0    39   11.0   25.5   7.47  .0740    116    1    100.0    5 
23/03/19  16:05   12.4   12.4   12.4    78    8.7   5.0   ESE   0.42   8.0   ESE   11.8   12.2   11.6  1030.4  0.00  0.00   0.021   0.000   25.9    39   10.9   25.4   7.48  .0740    117    1    100.0    5 
23/03/19  16:10   12.3   12.4   12.3    78    8.6   8.0   ESE   0.67  10.0   ESE   10.8   12.1   10.6  1030.4  0.00  0.00   0.021   0.000   25.9    39   10.9   25.4   7.48  .0740    117    1    100.0    5 
23/03/19  16:15   12.1   12.3   12.1    78    8.3  11.0   ESE   0.92  14.0   ESE    9.4   11.8    9.2  1030.4  0.00  0.00   0.022   0.000   25.9    39   10.9   25.4   7.48  .0740    117    1    100.0    5 
23/03/19  16:20   11.8   12.1   11.8    79    8.3  11.0   ESE   0.92  14.0   ESE    9.2   11.7    9.1  1030.5  0.00  0.00   0.023   0.000   25.9    39   10.9   25.4   7.48  .0740    117    1    100.0    5 
23/03/19  16:25   11.7   11.8   11.7    79    8.2   5.0   ESE   0.42  10.0   ESE   11.0   11.6   10.8  1030.6  0.00  0.00   0.023   0.000   25.9    39   10.9   25.4   7.48  .0740    116    1    100.0    5 
23/03/19  16:30   11.6   11.7   11.6    79    8.1   5.0   ESE   0.42  11.0   ESE   10.9   11.4   10.7  1030.6  0.00  0.00   0.023   0.000   25.8    39   10.8   25.3   7.48  .0741    117    1    100.0    5 
23/03/19  16:35   11.5   11.6   11.5    80    8.2   9.0   ESE   0.75  13.0   ESE    9.4   11.3    9.3  1030.6  0.00  0.00   0.024   0.000   25.8    40   11.2   25.3   7.58  .0740    117    1    100.0    5 
23/03/19  16:40   11.3   11.5   11.3    80    8.0  10.0   ESE   0.83  12.0   ESE    8.9   11.2    8.8  1030.7  0.00  0.00   0.024   0.000   25.8    40   11.2   25.3   7.58  .0740    113    1     99.1    5 
23/03/19  16:45   11.2   11.3   11.2    80    7.9   8.0   ESE   0.67  10.0   ESE    9.5   11.1    9.4  1030.7  0.00  0.00   0.025   0.000   25.9    40   11.3   25.4   7.58  .0740    117    1    100.0    5 
23/03/19  16:50   11.2   11.2   11.2    80    7.8   9.0   ESE   0.75  12.0   ESE    9.1   11.1    8.9  1030.6  0.00  0.00   0.025   0.000   25.9    40   11.3   25.4   7.58  .0740    117    1    100.0    5 
23/03/19  16:55   11.1   11.2   11.1    81    7.9   7.0   ESE   0.58  11.0   ESE    9.7   10.9    9.6  1030.5  0.00  0.00   0.025   0.000   25.9    40   11.3   25.4   7.58  .0740    116    1    100.0    5 
23/03/19  17:00   10.9   11.1   10.9    81    7.8   7.0   ESE   0.58  10.0   ESE    9.6   10.9    9.5  1030.6  0.00  0.00   0.026   0.000   25.9    40   11.3   25.4   7.58  .0740    115    1    100.0    5 
23/03/19  17:05   10.9   10.9   10.9    81    7.8   6.0   ESE   0.50  11.0   ESE    9.8   10.8    9.7  1030.5  0.00  0.00   0.026   0.000   25.9    40   11.3   25.5   7.58  .0740    115    1    100.0    5 
23/03/19  17:10   10.8   10.9   10.8    81    7.7   8.0   ESE   0.67  11.0   ESE    9.1   10.8    9.0  1030.5  0.00  0.00   0.026   0.000   25.9    40   11.3   25.4   7.58  .0740    117    1    100.0    5 
23/03/19  17:15   10.7   10.8   10.7    81    7.6   8.0   ESE   0.67  12.0   ESE    8.9   10.7    8.9  1030.5  0.00  0.00   0.026   0.000   25.9    39   10.9   25.4   7.48  .0740    117    1    100.0    5 
23/03/19  17:20   10.6   10.7   10.6    81    7.5   9.0   ESE   0.75  13.0   ESE    8.4   10.6    8.4  1030.6  0.00  0.00   0.027   0.000   25.9    39   10.9   25.4   7.48  .0740    117    1    100.0    5 
23/03/19  17:25   10.4   10.6   10.4    82    7.5   9.0   ESE   0.75  12.0   ESE    8.3   10.4    8.3  1030.6  0.00  0.00   0.027   0.000   25.9    39   10.9   25.4   7.48  .0740    117    1    100.0    5 
23/03/19  17:30   10.4   10.4   10.4    82    7.4   8.0   ESE   0.67  12.0   ESE    8.5   10.4    8.5  1030.7  0.00  0.00   0.028   0.000   25.8    39   10.8   25.3   7.48  .0741    117    1    100.0    5 
23/03/19  17:35   10.3   10.4   10.3    82    7.4   8.0   ESE   0.67  10.0   ESE    8.4   10.3    8.4  1030.7  0.00  0.00   0.028   0.000   25.8    39   10.8   25.3   7.48  .0741    117    1    100.0    5 
23/03/19  17:40   10.3   10.3   10.3    82    7.4   8.0   ESE   0.67  10.0   ESE    8.4   10.3    8.4  1030.7  0.00  0.00   0.028   0.000   25.8    39   10.8   25.3   7.48  .0741    117    1    100.0    5 
23/03/19  17:45   10.3   10.3   10.3    82    7.3   7.0   ESE   0.58  10.0   ESE    8.8   10.3    8.8  1030.7  0.00  0.00   0.028   0.000   25.7    39   10.7   25.2   7.48  .0741    116    1    100.0    5 
23/03/19  17:50   10.3   10.3   10.3    83    7.5   7.0   ESE   0.58   8.0   ESE    8.8   10.3    8.8  1030.7  0.00  0.00   0.028   0.000   25.7    39   10.7   25.2   7.48  .0741    117    1    100.0    5 
23/03/19  17:55   10.3   10.3   10.3    83    7.5   6.0   ESE   0.50   8.0   ESE    9.1   10.3    9.1  1030.7  0.00  0.00   0.028   0.000   25.7    39   10.7   25.1   7.49  .0741    116    1    100.0    5 
23/03/19  18:00   10.3   10.3   10.3    83    7.5   5.0   ESE   0.42   9.0   ESE    9.3   10.3    9.3  1030.8  0.00  0.00   0.028   0.000   25.6    39   10.6   25.1   7.49  .0741    117    1    100.0    5 
23/03/19  18:05   10.3   10.3   10.3    83    7.5   5.0   ESE   0.42   8.0   ESE    9.3   10.3    9.3  1030.7  0.00  0.00   0.028   0.000   25.6    39   10.6   25.1   7.49  .0741    116    1    100.0    5 
23/03/19  18:10   10.3   10.3   10.3    83    7.5   5.0   ESE   0.42   8.0   ESE    9.3   10.3    9.3  1030.7  0.00  0.00   0.028   0.000   25.6    40   11.0   25.1   7.59  .0741    117    1    100.0    5 
23/03/19  18:15   10.3   10.3   10.3    83    7.5   6.0   ESE   0.50   8.0   ESE    9.1   10.3    9.1  1030.8  0.00  0.00   0.028   0.000   25.6    40   11.0   25.1   7.59  .0741    116    1    100.0    5 
23/03/19  18:20   10.2   10.3   10.2    83    7.5   6.0   ESE   0.50   8.0   ESE    9.0   10.2    9.0  1030.8  0.00  0.00   0.028   0.000   25.7    40   11.1   25.2   7.59  .0741    116    1    100.0    5 
105268